Observation data for Fort Lewis CO on 03/11/2018      Previous  Date  Next       Current Mesonet Observations  Soil Data  Daily Summary Page  Observations in Plain Language
KFL1 110600Z 03005KT 02/M08 A301 RMK A01 T00201078  RH  048%=      5-min Rain = 0
KFL1 110601Z 03004KT 02/M08 A301 RMK A01 T00181079  RH  049%=      5-min Rain = 0
KFL1 110602Z 03005KT 02/M07 A301 RMK A01 T00151074  RH  052%=      5-min Rain = 0
KFL1 110603Z 03004KT 01/M08 A301 RMK A01 T00121075  RH  052%=      5-min Rain = 0
KFL1 110604Z 03004KT 01/M08 A301 RMK A01 T00121076  RH  052%=      5-min Rain = 0
KFL1 110605Z 04004KT 01/M08 A301 RMK A01 T00121081  RH  050%=      5-min Rain = 0
KFL1 110606Z 04004KT 01/M08 A301 RMK A01 T00131083  RH  049%=      5-min Rain = 0
KFL1 110607Z 05005KT 02/M08 A301 RMK A01 T00161082  RH  048%=      5-min Rain = 0
KFL1 110608Z 04004KT 02/M08 A301 RMK A01 T00161081  RH  048%=      5-min Rain = 0
KFL1 110609Z 04005KT 02/M08 A301 RMK A01 T00171082  RH  048%=      5-min Rain = 0
KFL1 110610Z 04005KT 02/M08 A301 RMK A01 T00171083  RH  047%=      5-min Rain = 0
KFL1 110611Z 04005KT 02/M08 A301 RMK A01 T00181082  RH  047%=      5-min Rain = 0
KFL1 110612Z 04006KT 02/M08 A301 RMK A01 T00181082  RH  048%=      5-min Rain = 0
KFL1 110613Z 04007KT 02/M08 A301 RMK A01 T00171083  RH  047%=      5-min Rain = 0
KFL1 110614Z 04007KT 02/M08 A301 RMK A01 T00191082  RH  047%=      5-min Rain = 0
KFL1 110615Z 04008KT 02/M08 A301 RMK A01 T00201083  RH  047%=      5-min Rain = 0
KFL1 110616Z 03007KT 02/M08 A301 RMK A01 T00211082  RH  046%=      5-min Rain = 0
KFL1 110617Z 03007KT 02/M08 A301 RMK A01 T00201084  RH  046%=      5-min Rain = 0
KFL1 110618Z 03006KT 02/M08 A301 RMK A01 T00211084  RH  045%=      5-min Rain = 0
KFL1 110619Z 03006KT 02/M09 A301 RMK A01 T00221085  RH  045%=      5-min Rain = 0
KFL1 110620Z 03006KT 02/M09 A301 RMK A01 T00231086  RH  044%=      5-min Rain = 0
KFL1 110621Z 03006KT 02/M09 A301 RMK A01 T00231089  RH  043%=      5-min Rain = 0
KFL1 110622Z 03006KT 02/M09 A301 RMK A01 T00241089  RH  043%=      5-min Rain = 0
KFL1 110623Z 02005KT 02/M09 A301 RMK A01 T00231089  RH  043%=      5-min Rain = 0
KFL1 110624Z 03006KT 02/M08 A301 RMK A01 T00221078  RH  048%=      5-min Rain = 0
KFL1 110625Z 02006KT 02/M08 A301 RMK A01 T00181079  RH  049%=      5-min Rain = 0
KFL1 110626Z 02006KT 01/M08 A301 RMK A01 T00141076  RH  051%=      5-min Rain = 0
KFL1 110627Z 02007KT 01/M08 A301 RMK A01 T00131077  RH  051%=      5-min Rain = 0
KFL1 110628Z 01007KT 01/M08 A301 RMK A01 T00131078  RH  051%=      5-min Rain = 0
KFL1 110629Z 01007KT 01/M08 A301 RMK A01 T00131078  RH  051%=      5-min Rain = 0
KFL1 110630Z 01007KT 01/M08 A301 RMK A01 T00141079  RH  050%=      5-min Rain = 0
KFL1 110631Z 01007KT 02/M08 A301 RMK A01 T00151077  RH  050%=      5-min Rain = 0
KFL1 110632Z 01006KT 02/M08 A301 RMK A01 T00151076  RH  051%=      5-min Rain = 0
KFL1 110633Z 02006KT 01/M08 A301 RMK A01 T00131080  RH  050%=      5-min Rain = 0
KFL1 110634Z 02005KT 02/M08 A301 RMK A01 T00161083  RH  048%=      5-min Rain = 0
KFL1 110635Z 03005KT 02/M09 A301 RMK A01 T00181087  RH  046%=      5-min Rain = 0
KFL1 110636Z 03005KT 02/M09 A301 RMK A01 T00201088  RH  045%=      5-min Rain = 0
KFL1 110637Z 03005KT 02/M09 A301 RMK A01 T00211088  RH  045%=      5-min Rain = 0
KFL1 110638Z 03005KT 02/M09 A301 RMK A01 T00211087  RH  045%=      5-min Rain = 0
KFL1 110639Z 03005KT 02/M09 A301 RMK A01 T00221087  RH  045%=      5-min Rain = 0
KFL1 110640Z 02006KT 02/M09 A301 RMK A01 T00211087  RH  045%=      5-min Rain = 0
KFL1 110641Z 02006KT 02/M09 A301 RMK A01 T00221088  RH  044%=      5-min Rain = 0
KFL1 110642Z 02006KT 02/M09 A301 RMK A01 T00231087  RH  044%=      5-min Rain = 0
KFL1 110643Z 02007KT 02/M08 A301 RMK A01 T00211082  RH  047%=      5-min Rain = 0
KFL1 110644Z 02006KT 02/M08 A301 RMK A01 T00181082  RH  048%=      5-min Rain = 0
KFL1 110645Z 02007KT 02/M08 A301 RMK A01 T00181083  RH  047%=      5-min Rain = 0
KFL1 110646Z 01007KT 02/M08 A301 RMK A01 T00191080  RH  048%=      5-min Rain = 0
KFL1 110647Z 01007KT 02/M08 A301 RMK A01 T00161078  RH  050%=      5-min Rain = 0
KFL1 110648Z 01007KT 02/M08 A301 RMK A01 T00151076  RH  051%=      5-min Rain = 0
KFL1 110649Z 01007KT 01/M08 A301 RMK A01 T00141076  RH  051%=      5-min Rain = 0
KFL1 110650Z 01007KT 01/M08 A301 RMK A01 T00131076  RH  052%=      5-min Rain = 0
KFL1 110651Z 02007KT 01/M08 A301 RMK A01 T00121077  RH  052%=      5-min Rain = 0
KFL1 110652Z 02006KT 01/M08 A301 RMK A01 T00121079  RH  051%=      5-min Rain = 0
KFL1 110653Z 03006KT 01/M08 A301 RMK A01 T00141084  RH  048%=      5-min Rain = 0
KFL1 110654Z 03005KT 02/M09 A301 RMK A01 T00171086  RH  046%=      5-min Rain = 0
KFL1 110655Z 04005KT 02/M09 A301 RMK A01 T00181088  RH  045%=      5-min Rain = 0
KFL1 110656Z 04005KT 02/M09 A301 RMK A01 T00201088  RH  045%=      5-min Rain = 0
KFL1 110657Z 03006KT 02/M09 A301 RMK A01 T00191090  RH  044%=      5-min Rain = 0
KFL1 110658Z 04006KT 02/M09 A301 RMK A01 T00211089  RH  044%=      5-min Rain = 0
KFL1 110659Z 04006KT 02/M09 A301 RMK A01 T00231088  RH  044%=      5-min Rain = 0
KFL1 110700Z 03006KT 02/M09 A301 RMK A01 T00221089  RH  044%=      5-min Rain = 0
KFL1 110701Z 03006KT 02/M09 A301 RMK A01 T00221089  RH  044%=      5-min Rain = 0
KFL1 110702Z 03006KT 02/M09 A301 RMK A01 T00211088  RH  044%=      5-min Rain = 0
KFL1 110703Z 03006KT 02/M09 A301 RMK A01 T00221088  RH  044%=      5-min Rain = 0
KFL1 110704Z 04006KT 02/M09 A301 RMK A01 T00211087  RH  045%=      5-min Rain = 0
KFL1 110705Z 04006KT 02/M09 A301 RMK A01 T00231085  RH  045%=      5-min Rain = 0
KFL1 110706Z 03006KT 02/M08 A301 RMK A01 T00221084  RH  045%=      5-min Rain = 0
KFL1 110707Z 03005KT 02/M08 A301 RMK A01 T00231083  RH  045%=      5-min Rain = 0
KFL1 110708Z 04005KT 02/M08 A301 RMK A01 T00221082  RH  046%=      5-min Rain = 0
KFL1 110709Z 04005KT 02/M08 A301 RMK A01 T00211082  RH  046%=      5-min Rain = 0
KFL1 110710Z 04005KT 02/M08 A301 RMK A01 T00211081  RH  047%=      5-min Rain = 0
KFL1 110711Z 04006KT 02/M08 A301 RMK A01 T00191082  RH  047%=      5-min Rain = 0
KFL1 110712Z 04006KT 02/M08 A301 RMK A01 T00201081  RH  047%=      5-min Rain = 0
KFL1 110713Z 03005KT 02/M08 A301 RMK A01 T00201082  RH  047%=      5-min Rain = 0
KFL1 110714Z 03005KT 02/M08 A301 RMK A01 T00201083  RH  046%=      5-min Rain = 0
KFL1 110715Z 03005KT 02/M09 A301 RMK A01 T00211085  RH  046%=      5-min Rain = 0
KFL1 110716Z 04005KT 02/M09 A301 RMK A01 T00201085  RH  046%=      5-min Rain = 0
KFL1 110717Z 03005KT 02/M09 A301 RMK A01 T00201085  RH  046%=      5-min Rain = 0
KFL1 110718Z 03005KT 02/M09 A301 RMK A01 T00201086  RH  045%=      5-min Rain = 0
KFL1 110719Z 03004KT 02/M09 A301 RMK A01 T00211086  RH  045%=      5-min Rain = 0
KFL1 110720Z 03005KT 02/M08 A301 RMK A01 T00211084  RH  046%=      5-min Rain = 0
KFL1 110721Z 03005KT 02/M08 A301 RMK A01 T00221082  RH  046%=      5-min Rain = 0
KFL1 110722Z 04005KT 02/M08 A301 RMK A01 T00201084  RH  046%=      5-min Rain = 0
KFL1 110723Z 04006KT 02/M09 A301 RMK A01 T00191085  RH  046%=      5-min Rain = 0
KFL1 110724Z 04006KT 02/M08 A301 RMK A01 T00201083  RH  047%=      5-min Rain = 0
KFL1 110725Z 04006KT 02/M08 A301 RMK A01 T00201082  RH  047%=      5-min Rain = 0
KFL1 110726Z 04007KT 02/M08 A301 RMK A01 T00201081  RH  047%=      5-min Rain = 0
KFL1 110727Z 04006KT 02/M08 A301 RMK A01 T00201081  RH  047%=      5-min Rain = 0
KFL1 110728Z 04006KT 02/M08 A301 RMK A01 T00181083  RH  047%=      5-min Rain = 0
KFL1 110729Z 04006KT 02/M08 A301 RMK A01 T00191083  RH  047%=      5-min Rain = 0
KFL1 110730Z 04006KT 02/M08 A301 RMK A01 T00191083  RH  047%=      5-min Rain = 0
KFL1 110731Z 04006KT 02/M08 A301 RMK A01 T00191084  RH  046%=      5-min Rain = 0
KFL1 110732Z 04007KT 02/M08 A301 RMK A01 T00211084  RH  046%=      5-min Rain = 0
KFL1 110733Z 04007KT 02/M08 A301 RMK A01 T00231083  RH  046%=      5-min Rain = 0
KFL1 110734Z 04006KT 02/M08 A301 RMK A01 T00231084  RH  045%=      5-min Rain = 0
KFL1 110735Z 04008KT 02/M09 A301 RMK A01 T00231085  RH  045%=      5-min Rain = 0
KFL1 110736Z 04007KT 02/M09 A301 RMK A01 T00231085  RH  045%=      5-min Rain = 0
KFL1 110737Z 05007KT 02/M08 A301 RMK A01 T00241083  RH  045%=      5-min Rain = 0
KFL1 110738Z 05007KT 02/M08 A301 RMK A01 T00241084  RH  045%=      5-min Rain = 0
KFL1 110739Z 05007KT 02/M08 A301 RMK A01 T00241083  RH  045%=      5-min Rain = 0
KFL1 110740Z 05007KT 02/M08 A301 RMK A01 T00231083  RH  045%=      5-min Rain = 0
KFL1 110741Z 05007KT 02/M08 A301 RMK A01 T00241080  RH  046%=      5-min Rain = 0
KFL1 110742Z 05006KT 02/M08 A301 RMK A01 T00231081  RH  046%=      5-min Rain = 0
KFL1 110743Z 05006KT 02/M08 A301 RMK A01 T00221081  RH  046%=      5-min Rain = 0
KFL1 110744Z 05007KT 02/M08 A301 RMK A01 T00221082  RH  046%=      5-min Rain = 0
KFL1 110745Z 05006KT 02/M08 A301 RMK A01 T00221081  RH  046%=      5-min Rain = 0
KFL1 110746Z 06005KT 02/M08 A301 RMK A01 T00221082  RH  046%=      5-min Rain = 0
KFL1 110747Z 06006KT 02/M08 A301 RMK A01 T00231082  RH  046%=      5-min Rain = 0
KFL1 110748Z 06005KT 02/M08 A301 RMK A01 T00231082  RH  046%=      5-min Rain = 0
KFL1 110749Z 06005KT 02/M08 A301 RMK A01 T00231082  RH  046%=      5-min Rain = 0
KFL1 110750Z 06005KT 02/M08 A301 RMK A01 T00221083  RH  046%=      5-min Rain = 0
KFL1 110751Z 06005KT 02/M08 A301 RMK A01 T00241082  RH  045%=      5-min Rain = 0
KFL1 110752Z 05006KT 02/M08 A301 RMK A01 T00231084  RH  045%=      5-min Rain = 0
KFL1 110753Z 06006KT 02/M09 A301 RMK A01 T00231085  RH  045%=      5-min Rain = 0
KFL1 110754Z 05007KT 03/M08 A301 RMK A01 T00251083  RH  045%=      5-min Rain = 0
KFL1 110755Z 05007KT 02/M09 A301 RMK A01 T00241085  RH  044%=      5-min Rain = 0
KFL1 110756Z 05007KT 03/M09 A301 RMK A01 T00261085  RH  044%=      5-min Rain = 0
KFL1 110757Z 05007KT 03/M09 A301 RMK A01 T00251088  RH  043%=      5-min Rain = 0
KFL1 110758Z 04006KT 03/M09 A301 RMK A01 T00261089  RH  043%=      5-min Rain = 0
KFL1 110759Z 04006KT 03/M09 A301 RMK A01 T00281088  RH  042%=      5-min Rain = 0
KFL1 110800Z 04005KT 03/M09 A3011 RMK A01 T00301088  RH  042%=      5-min Rain = 0
KFL1 110801Z 04005KT 03/M09 A3011 RMK A01 T00301089  RH  041%=      5-min Rain = 0
KFL1 110802Z 04005KT 03/M09 A3011 RMK A01 T00311090  RH  041%=      5-min Rain = 0
KFL1 110803Z 04004KT 03/M09 A3011 RMK A01 T00331088  RH  041%=      5-min Rain = 0
KFL1 110804Z 04004KT 03/M09 A3011 RMK A01 T00331088  RH  041%=      5-min Rain = 0
KFL1 110805Z 04004KT 03/M09 A3011 RMK A01 T00311090  RH  041%=      5-min Rain = 0
KFL1 110806Z 04004KT 03/M09 A3011 RMK A01 T00331090  RH  040%=      5-min Rain = 0
KFL1 110807Z 05004KT 03/M09 A3011 RMK A01 T00341091  RH  040%=      5-min Rain = 0
KFL1 110808Z 06004KT 04/M09 A3011 RMK A01 T00351090  RH  039%=      5-min Rain = 0
KFL1 110809Z 06005KT 04/M09 A3011 RMK A01 T00351091  RH  039%=      5-min Rain = 0
KFL1 110810Z 06004KT 03/M09 A3011 RMK A01 T00341091  RH  039%=      5-min Rain = 0
KFL1 110811Z 06005KT 03/M09 A3011 RMK A01 T00341091  RH  039%=      5-min Rain = 0
KFL1 110812Z 05005KT 03/M09 A3011 RMK A01 T00341090  RH  040%=      5-min Rain = 0
KFL1 110813Z 04004KT 03/M09 A3011 RMK A01 T00341089  RH  040%=      5-min Rain = 0
KFL1 110814Z 05005KT 03/M09 A3011 RMK A01 T00341088  RH  040%=      5-min Rain = 0
KFL1 110815Z 06005KT 03/M09 A3011 RMK A01 T00341089  RH  040%=      5-min Rain = 0
KFL1 110816Z 05006KT 03/M09 A3011 RMK A01 T00331091  RH  040%=      5-min Rain = 0
KFL1 110817Z 05006KT 03/M09 A3011 RMK A01 T00341090  RH  040%=      5-min Rain = 0
KFL1 110818Z 05006KT 03/M09 A3011 RMK A01 T00321093  RH  040%=      5-min Rain = 0
KFL1 110819Z 05007KT 03/M09 A3011 RMK A01 T00331091  RH  040%=      5-min Rain = 0
KFL1 110820Z 05007KT 03/M09 A3011 RMK A01 T00331092  RH  039%=      5-min Rain = 0
KFL1 110821Z 04006KT 04/M09 A3011 RMK A01 T00351090  RH  040%=      5-min Rain = 0
KFL1 110822Z 05006KT 04/M09 A3011 RMK A01 T00361088  RH  040%=      5-min Rain = 0
KFL1 110823Z 05006KT 03/M09 A3011 RMK A01 T00341090  RH  040%=      5-min Rain = 0
KFL1 110824Z 05005KT 03/M09 A3011 RMK A01 T00331090  RH  040%=      5-min Rain = 0
KFL1 110825Z 05005KT 03/M09 A3011 RMK A01 T00331088  RH  041%=      5-min Rain = 0
KFL1 110826Z 05005KT 03/M09 A3011 RMK A01 T00331087  RH  041%=      5-min Rain = 0
KFL1 110827Z 05006KT 03/M09 A3011 RMK A01 T00321087  RH  041%=      5-min Rain = 0
KFL1 110828Z 05006KT 03/M09 A3011 RMK A01 T00301088  RH  042%=      5-min Rain = 0
KFL1 110829Z 05007KT 03/M09 A3011 RMK A01 T00301088  RH  042%=      5-min Rain = 0
KFL1 110830Z 05006KT 03/M09 A3011 RMK A01 T00321087  RH  041%=      5-min Rain = 0
KFL1 110831Z 04005KT 03/M09 A3011 RMK A01 T00311091  RH  040%=      5-min Rain = 0
KFL1 110832Z 04006KT 04/M09 A3011 RMK A01 T00351090  RH  040%=      5-min Rain = 0
KFL1 110833Z 03006KT 03/M09 A3011 RMK A01 T00341093  RH  039%=      5-min Rain = 0
KFL1 110834Z 03006KT 04/M10 A3011 RMK A01 T00351095  RH  038%=      5-min Rain = 0
KFL1 110835Z 03005KT 04/M10 A3011 RMK A01 T00371095  RH  037%=      5-min Rain = 0
KFL1 110836Z 04005KT 04/M10 A3011 RMK A01 T00381095  RH  037%=      5-min Rain = 0
KFL1 110837Z 03004KT 04/M09 A3011 RMK A01 T00381094  RH  037%=      5-min Rain = 0
KFL1 110838Z 03004KT 04/M09 A3011 RMK A01 T00401091  RH  038%=      5-min Rain = 0
KFL1 110839Z 03005KT 04/M09 A3011 RMK A01 T00391086  RH  040%=      5-min Rain = 0
KFL1 110840Z 03005KT 04/M09 A3011 RMK A01 T00361086  RH  040%=      5-min Rain = 0
KFL1 110841Z 03005KT 03/M08 A3011 RMK A01 T00341084  RH  042%=      5-min Rain = 0
KFL1 110842Z 03004KT 03/M08 A3011 RMK A01 T00321083  RH  043%=      5-min Rain = 0
KFL1 110843Z 03004KT 03/M08 A3011 RMK A01 T00311082  RH  043%=      5-min Rain = 0
KFL1 110844Z 04003KT 03/M08 A3011 RMK A01 T00311082  RH  043%=      5-min Rain = 0
KFL1 110845Z 04002KT 03/M09 A3011 RMK A01 T00301085  RH  043%=      5-min Rain = 0
KFL1 110846Z 06002KT 03/M09 A3011 RMK A01 T00301085  RH  042%=      5-min Rain = 0
KFL1 110847Z 07002KT 03/M09 A3011 RMK A01 T00311089  RH  041%=      5-min Rain = 0
KFL1 110848Z 07002KT 03/M09 A3011 RMK A01 T00321090  RH  040%=      5-min Rain = 0
KFL1 110849Z 06003KT 03/M09 A3011 RMK A01 T00321088  RH  041%=      5-min Rain = 0
KFL1 110850Z 05003KT 03/M09 A3011 RMK A01 T00321087  RH  041%=      5-min Rain = 0
KFL1 110851Z 06003KT 03/M09 A3011 RMK A01 T00321085  RH  042%=      5-min Rain = 0
KFL1 110852Z 06003KT 03/M08 A3011 RMK A01 T00331083  RH  042%=      5-min Rain = 0
KFL1 110853Z 10003KT 03/M08 A3011 RMK A01 T00311084  RH  043%=      5-min Rain = 0
KFL1 110854Z 10003KT 03/M08 A3011 RMK A01 T00301078  RH  045%=      5-min Rain = 0
KFL1 110855Z 09003KT 03/M08 A3011 RMK A01 T00271078  RH  046%=      5-min Rain = 0
KFL1 110856Z 08004KT 03/M08 A3011 RMK A01 T00271079  RH  046%=      5-min Rain = 0
KFL1 110857Z 08003KT 03/M08 A3011 RMK A01 T00261080  RH  045%=      5-min Rain = 0
KFL1 110858Z 08004KT 03/M08 A3011 RMK A01 T00261081  RH  045%=      5-min Rain = 0
KFL1 110859Z 08003KT 03/M08 A3011 RMK A01 T00251082  RH  045%=      5-min Rain = 0
KFL1 110900Z 07003KT 03/M09 A3011 RMK A01 T00261085  RH  044%=      5-min Rain = 0
KFL1 110901Z 07004KT 03/M09 A3011 RMK A01 T00261090  RH  042%=      5-min Rain = 0
KFL1 110902Z 06004KT 03/M09 A3011 RMK A01 T00261092  RH  041%=      5-min Rain = 0
KFL1 110903Z 05004KT 03/M10 A3011 RMK A01 T00291095  RH  040%=      5-min Rain = 0
KFL1 110904Z 05004KT 03/M10 A3011 RMK A01 T00321096  RH  039%=      5-min Rain = 0
KFL1 110905Z 04004KT 03/M10 A3011 RMK A01 T00321098  RH  038%=      5-min Rain = 0
KFL1 110906Z 04004KT 03/M10 A3011 RMK A01 T00331097  RH  038%=      5-min Rain = 0
KFL1 110907Z 04004KT 03/M10 A3011 RMK A01 T00341095  RH  038%=      5-min Rain = 0
KFL1 110908Z 04005KT 04/M10 A3011 RMK A01 T00351095  RH  038%=      5-min Rain = 0
KFL1 110909Z 04004KT 04/M10 A3011 RMK A01 T00361095  RH  038%=      5-min Rain = 0
KFL1 110910Z 04004KT 04/M10 A3011 RMK A01 T00351096  RH  038%=      5-min Rain = 0
KFL1 110911Z 04003KT 04/M10 A3011 RMK A01 T00371095  RH  037%=      5-min Rain = 0
KFL1 110912Z 05004KT 04/M10 A3011 RMK A01 T00361098  RH  037%=      5-min Rain = 0
KFL1 110913Z 04004KT 04/M10 A3011 RMK A01 T00381096  RH  037%=      5-min Rain = 0
KFL1 110914Z 05004KT 04/M10 A3011 RMK A01 T00371098  RH  037%=      5-min Rain = 0
KFL1 110915Z 05004KT 04/M10 A3011 RMK A01 T00371099  RH  036%=      5-min Rain = 0
KFL1 110916Z 06004KT 04/M10 A3011 RMK A01 T00381100  RH  036%=      5-min Rain = 0
KFL1 110917Z 05004KT 04/M10 A3011 RMK A01 T00391099  RH  036%=      5-min Rain = 0
KFL1 110918Z 06004KT 04/M10 A3011 RMK A01 T00391099  RH  036%=      5-min Rain = 0
KFL1 110919Z 06004KT 04/M10 A3011 RMK A01 T00381099  RH  036%=      5-min Rain = 0
KFL1 110920Z 06004KT 04/M10 A3011 RMK A01 T00371097  RH  037%=      5-min Rain = 0
KFL1 110921Z 06004KT 04/M10 A3011 RMK A01 T00361096  RH  037%=      5-min Rain = 0
KFL1 110922Z 06004KT 04/M10 A3011 RMK A01 T00351096  RH  038%=      5-min Rain = 0
KFL1 110923Z 05004KT 04/M10 A3011 RMK A01 T00351096  RH  038%=      5-min Rain = 0
KFL1 110924Z 05004KT 04/M09 A3011 RMK A01 T00351094  RH  038%=      5-min Rain = 0
KFL1 110925Z 05004KT 04/M10 A3011 RMK A01 T00351096  RH  038%=      5-min Rain = 0
KFL1 110926Z 05003KT 03/M10 A3011 RMK A01 T00341097  RH  038%=      5-min Rain = 0
KFL1 110927Z 06004KT 03/M10 A3011 RMK A01 T00341096  RH  038%=      5-min Rain = 0
KFL1 110928Z 05003KT 03/M10 A3011 RMK A01 T00341097  RH  038%=      5-min Rain = 0
KFL1 110929Z 05003KT 03/M10 A3011 RMK A01 T00331098  RH  038%=      5-min Rain = 0
KFL1 110930Z 05003KT 04/M10 A3011 RMK A01 T00351099  RH  037%=      5-min Rain = 0
KFL1 110931Z 05003KT 04/M10 A3011 RMK A01 T00351101  RH  036%=      5-min Rain = 0
KFL1 110932Z 05003KT 04/M10 A3011 RMK A01 T00371100  RH  036%=      5-min Rain = 0
KFL1 110933Z 05003KT 04/M10 A3011 RMK A01 T00351102  RH  036%=      5-min Rain = 0
KFL1 110934Z 05003KT 04/M10 A3011 RMK A01 T00361100  RH  036%=      5-min Rain = 0
KFL1 110935Z 04003KT 04/M10 A3011 RMK A01 T00361097  RH  037%=      5-min Rain = 0
KFL1 110936Z 05002KT 03/M10 A3011 RMK A01 T00341098  RH  037%=      5-min Rain = 0
KFL1 110937Z 04003KT 03/M10 A3011 RMK A01 T00341098  RH  038%=      5-min Rain = 0
KFL1 110938Z 04003KT 03/M10 A3011 RMK A01 T00331097  RH  038%=      5-min Rain = 0
KFL1 110939Z 04003KT 04/M09 A3011 RMK A01 T00351094  RH  038%=      5-min Rain = 0
KFL1 110940Z 04003KT 03/M09 A3011 RMK A01 T00331094  RH  039%=      5-min Rain = 0
KFL1 110941Z 04003KT 03/M09 A3011 RMK A01 T00341090  RH  040%=      5-min Rain = 0
KFL1 110942Z 03003KT 03/M09 A3011 RMK A01 T00331090  RH  040%=      5-min Rain = 0
KFL1 110943Z 03004KT 03/M09 A3011 RMK A01 T00331086  RH  041%=      5-min Rain = 0
KFL1 110944Z 03004KT 03/M08 A3011 RMK A01 T00281078  RH  046%=      5-min Rain = 0
KFL1 110945Z 02004KT 02/M07 A3011 RMK A01 T00221069  RH  051%=      5-min Rain = 0
KFL1 110946Z 02004KT 02/M07 A3011 RMK A01 T00171067  RH  054%=      5-min Rain = 0
KFL1 110947Z 02004KT 01/M07 A3011 RMK A01 T00141067  RH  055%=      5-min Rain = 0
KFL1 110948Z 02004KT 01/M07 A3011 RMK A01 T00131067  RH  055%=      5-min Rain = 0
KFL1 110949Z 02004KT 01/M07 A3011 RMK A01 T00121069  RH  055%=      5-min Rain = 0
KFL1 110950Z 02003KT 01/M07 A3011 RMK A01 T00111068  RH  055%=      5-min Rain = 0
KFL1 110951Z 02004KT 01/M07 A3011 RMK A01 T00121069  RH  055%=      5-min Rain = 0
KFL1 110952Z 03003KT 01/M07 A3011 RMK A01 T00121073  RH  053%=      5-min Rain = 0
KFL1 110953Z 03004KT 02/M08 A3011 RMK A01 T00161078  RH  050%=      5-min Rain = 0
KFL1 110954Z 04004KT 02/M08 A3011 RMK A01 T00191082  RH  047%=      5-min Rain = 0
KFL1 110955Z 05003KT 02/M09 A3011 RMK A01 T00211089  RH  044%=      5-min Rain = 0
KFL1 110956Z 05003KT 03/M10 A3011 RMK A01 T00251095  RH  041%=      5-min Rain = 0
KFL1 110957Z 04003KT 03/M10 A3011 RMK A01 T00271097  RH  039%=      5-min Rain = 0
KFL1 110958Z 05003KT 03/M10 A3011 RMK A01 T00291097  RH  039%=      5-min Rain = 0
KFL1 110959Z 05003KT 03/M10 A3011 RMK A01 T00301099  RH  038%=      5-min Rain = 0
KFL1 111000Z 05003KT 03/M10 A3011 RMK A01 T00341097  RH  038%=      5-min Rain = 0
KFL1 111001Z 04003KT 03/M10 A3011 RMK A01 T00341098  RH  037%=      5-min Rain = 0
KFL1 111002Z 03003KT 04/M10 A3011 RMK A01 T00351098  RH  037%=      5-min Rain = 0
KFL1 111003Z 03003KT 03/M09 A3011 RMK A01 T00331092  RH  040%=      5-min Rain = 0
KFL1 111004Z 03003KT 03/M07 A3011 RMK A01 T00271073  RH  048%=      5-min Rain = 0
KFL1 111005Z 02004KT 02/M07 A3011 RMK A01 T00201071  RH  051%=      5-min Rain = 0
KFL1 111006Z 02005KT 02/M07 A3011 RMK A01 T00151069  RH  053%=      5-min Rain = 0
KFL1 111007Z 02006KT 01/M07 A3011 RMK A01 T00121069  RH  055%=      5-min Rain = 0
KFL1 111008Z 01006KT 01/M07 A3011 RMK A01 T00121068  RH  055%=      5-min Rain = 0
KFL1 111009Z 00005KT 01/M07 A3011 RMK A01 T00101066  RH  057%=      5-min Rain = 0
KFL1 111010Z 02005KT 01/M07 A3011 RMK A01 T00091066  RH  057%=      5-min Rain = 0
KFL1 111011Z 02004KT 01/M07 A3011 RMK A01 T00091069  RH  056%=      5-min Rain = 0
KFL1 111012Z 02004KT 01/M07 A3011 RMK A01 T00111067  RH  056%=      5-min Rain = 0
KFL1 111013Z 03004KT 01/M07 A3011 RMK A01 T00111066  RH  056%=      5-min Rain = 0
KFL1 111014Z 03004KT 01/M07 A3011 RMK A01 T00111067  RH  056%=      5-min Rain = 0
KFL1 111015Z 04004KT 01/M07 A3011 RMK A01 T00111070  RH  054%=      5-min Rain = 0
KFL1 111016Z 05003KT 01/M08 A3011 RMK A01 T00141077  RH  051%=      5-min Rain = 0
KFL1 111017Z 05003KT 02/M08 A3011 RMK A01 T00191082  RH  047%=      5-min Rain = 0
KFL1 111018Z 05003KT 02/M08 A3011 RMK A01 T00221084  RH  045%=      5-min Rain = 0
KFL1 111019Z 06004KT 02/M08 A3011 RMK A01 T00241083  RH  045%=      5-min Rain = 0
KFL1 111020Z 07004KT 02/M08 A3011 RMK A01 T00241084  RH  045%=      5-min Rain = 0
KFL1 111021Z 07004KT 03/M08 A3011 RMK A01 T00251084  RH  045%=      5-min Rain = 0
KFL1 111022Z 07004KT 02/M08 A3011 RMK A01 T00241084  RH  045%=      5-min Rain = 0
KFL1 111023Z 08003KT 02/M09 A3011 RMK A01 T00241085  RH  044%=      5-min Rain = 0
KFL1 111024Z 08003KT 03/M09 A3011 RMK A01 T00251086  RH  044%=      5-min Rain = 0
KFL1 111025Z 08003KT 03/M09 A3011 RMK A01 T00271088  RH  042%=      5-min Rain = 0
KFL1 111026Z 08003KT 03/M09 A3011 RMK A01 T00271091  RH  042%=      5-min Rain = 0
KFL1 111027Z 08003KT 03/M09 A3011 RMK A01 T00281091  RH  041%=      5-min Rain = 0
KFL1 111028Z 09003KT 03/M09 A3011 RMK A01 T00281092  RH  041%=      5-min Rain = 0
KFL1 111029Z 09003KT 03/M09 A3011 RMK A01 T00281093  RH  041%=      5-min Rain = 0
KFL1 111030Z 09003KT 03/M10 A3011 RMK A01 T00271095  RH  040%=      5-min Rain = 0
KFL1 111031Z 09003KT 03/M09 A3012 RMK A01 T00291093  RH  040%=      5-min Rain = 0
KFL1 111032Z 08003KT 03/M09 A3012 RMK A01 T00301093  RH  040%=      5-min Rain = 0
KFL1 111033Z 08003KT 03/M09 A3012 RMK A01 T00301094  RH  040%=      5-min Rain = 0
KFL1 111034Z 08002KT 03/M09 A3012 RMK A01 T00311092  RH  040%=      5-min Rain = 0
KFL1 111035Z 08002KT 03/M10 A3012 RMK A01 T00291095  RH  040%=      5-min Rain = 0
KFL1 111036Z 07002KT 03/M10 A3012 RMK A01 T00291097  RH  039%=      5-min Rain = 0
KFL1 111037Z 07002KT 03/M10 A3012 RMK A01 T00291098  RH  039%=      5-min Rain = 0
KFL1 111038Z 08002KT 03/M10 A3012 RMK A01 T00301099  RH  038%=      5-min Rain = 0
KFL1 111039Z 08003KT 03/M10 A3012 RMK A01 T00311099  RH  038%=      5-min Rain = 0
KFL1 111040Z 08003KT 03/M10 A3012 RMK A01 T00301102  RH  037%=      5-min Rain = 0
KFL1 111041Z 09003KT 03/M10 A3012 RMK A01 T00321102  RH  037%=      5-min Rain = 0
KFL1 111042Z 08004KT 03/M10 A3012 RMK A01 T00321103  RH  036%=      5-min Rain = 0
KFL1 111043Z 08004KT 03/M10 A3012 RMK A01 T00341102  RH  036%=      5-min Rain = 0
KFL1 111044Z 08004KT 03/M10 A3012 RMK A01 T00331102  RH  037%=      5-min Rain = 0
KFL1 111045Z 08004KT 03/M10 A3012 RMK A01 T00341099  RH  037%=      5-min Rain = 0
KFL1 111046Z 07004KT 03/M10 A3012 RMK A01 T00331099  RH  038%=      5-min Rain = 0
KFL1 111047Z 07004KT 03/M10 A3012 RMK A01 T00321100  RH  038%=      5-min Rain = 0
KFL1 111048Z 07003KT 03/M10 A3012 RMK A01 T00321098  RH  038%=      5-min Rain = 0
KFL1 111049Z 07004KT 03/M10 A3012 RMK A01 T00321097  RH  038%=      5-min Rain = 0
KFL1 111050Z 07003KT 03/M10 A3012 RMK A01 T00301098  RH  038%=      5-min Rain = 0
KFL1 111051Z 07004KT 03/M10 A3012 RMK A01 T00301099  RH  038%=      5-min Rain = 0
KFL1 111052Z 06003KT 03/M10 A3012 RMK A01 T00311098  RH  038%=      5-min Rain = 0
KFL1 111053Z 05003KT 03/M10 A3012 RMK A01 T00311099  RH  038%=      5-min Rain = 0
KFL1 111054Z 06003KT 03/M10 A3012 RMK A01 T00311100  RH  037%=      5-min Rain = 0
KFL1 111055Z 05004KT 03/M10 A3012 RMK A01 T00311100  RH  037%=      5-min Rain = 0
KFL1 111056Z 04004KT 03/M10 A3012 RMK A01 T00331098  RH  037%=      5-min Rain = 0
KFL1 111057Z 04003KT 03/M10 A3012 RMK A01 T00331099  RH  037%=      5-min Rain = 0
KFL1 111058Z 03004KT 03/M10 A3012 RMK A01 T00341097  RH  038%=      5-min Rain = 0
KFL1 111059Z 03004KT 03/M09 A3012 RMK A01 T00341092  RH  039%=      5-min Rain = 0
KFL1 111100Z 02005KT 03/M08 A3012 RMK A01 T00301081  RH  044%=      5-min Rain = 0
KFL1 111101Z 01005KT 02/M08 A3012 RMK A01 T00241076  RH  048%=      5-min Rain = 0
KFL1 111102Z 02005KT 02/M07 A3012 RMK A01 T00201071  RH  051%=      5-min Rain = 0
KFL1 111103Z 02005KT 02/M07 A3012 RMK A01 T00161072  RH  052%=      5-min Rain = 0
KFL1 111104Z 03005KT 02/M07 A3012 RMK A01 T00161071  RH  053%=      5-min Rain = 0
KFL1 111105Z 04004KT 01/M07 A3012 RMK A01 T00141072  RH  053%=      5-min Rain = 0
KFL1 111106Z 04004KT 02/M07 A3012 RMK A01 T00151074  RH  052%=      5-min Rain = 0
KFL1 111107Z 05003KT 02/M08 A3012 RMK A01 T00171084  RH  047%=      5-min Rain = 0
KFL1 111108Z 06003KT 02/M09 A3013 RMK A01 T00201090  RH  044%=      5-min Rain = 0
KFL1 111109Z 05003KT 02/M10 A3013 RMK A01 T00231095  RH  041%=      5-min Rain = 0
KFL1 111110Z 06003KT 03/M10 A3013 RMK A01 T00251097  RH  040%=      5-min Rain = 0
KFL1 111111Z 06003KT 03/M10 A3013 RMK A01 T00291096  RH  039%=      5-min Rain = 0
KFL1 111112Z 07003KT 03/M10 A3013 RMK A01 T00291096  RH  039%=      5-min Rain = 0
KFL1 111113Z 06002KT 03/M10 A3013 RMK A01 T00291095  RH  040%=      5-min Rain = 0
KFL1 111114Z 07002KT 03/M10 A3013 RMK A01 T00301095  RH  039%=      5-min Rain = 0
KFL1 111115Z 07003KT 03/M09 A3013 RMK A01 T00311085  RH  042%=      5-min Rain = 0
KFL1 111116Z 08003KT 03/M09 A3013 RMK A01 T00281089  RH  042%=      5-min Rain = 0
KFL1 111117Z 07003KT 03/M09 A3013 RMK A01 T00271088  RH  042%=      5-min Rain = 0
KFL1 111118Z 06003KT 03/M09 A3013 RMK A01 T00251088  RH  043%=      5-min Rain = 0
KFL1 111119Z 07002KT 03/M09 A3013 RMK A01 T00251087  RH  043%=      5-min Rain = 0
KFL1 111120Z 07002KT 02/M08 A3013 RMK A01 T00231077  RH  048%=      5-min Rain = 0
KFL1 111121Z 08002KT 02/M07 A3013 RMK A01 T00181072  RH  051%=      5-min Rain = 0
KFL1 111122Z 04002KT 02/M08 A3013 RMK A01 T00161075  RH  051%=      5-min Rain = 0
KFL1 111123Z 03002KT 02/M08 A3013 RMK A01 T00151076  RH  051%=      5-min Rain = 0
KFL1 111124Z 04002KT 01/M08 A3013 RMK A01 T00141077  RH  051%=      5-min Rain = 0
KFL1 111125Z 02002KT 01/M08 A3013 RMK A01 T00141078  RH  051%=      5-min Rain = 0
KFL1 111126Z 03003KT 01/M08 A3013 RMK A01 T00141080  RH  050%=      5-min Rain = 0
KFL1 111127Z 03004KT 02/M08 A3013 RMK A01 T00151079  RH  049%=      5-min Rain = 0
KFL1 111128Z 03004KT 02/M08 A3013 RMK A01 T00161078  RH  050%=      5-min Rain = 0
KFL1 111129Z 04004KT 02/M08 A3013 RMK A01 T00181077  RH  049%=      5-min Rain = 0
KFL1 111130Z 04004KT 02/M08 A3013 RMK A01 T00181077  RH  049%=      5-min Rain = 0
KFL1 111131Z 05003KT 02/M08 A3013 RMK A01 T00181081  RH  048%=      5-min Rain = 0
KFL1 111132Z 05003KT 02/M08 A3013 RMK A01 T00191084  RH  046%=      5-min Rain = 0
KFL1 111133Z 05003KT 02/M08 A3013 RMK A01 T00201083  RH  046%=      5-min Rain = 0
KFL1 111134Z 05003KT 02/M09 A3013 RMK A01 T00211085  RH  045%=      5-min Rain = 0
KFL1 111135Z 06002KT 02/M09 A3013 RMK A01 T00201088  RH  045%=      5-min Rain = 0
KFL1 111136Z 06003KT 02/M09 A3014 RMK A01 T00211088  RH  044%=      5-min Rain = 0
KFL1 111137Z 07003KT 02/M09 A3014 RMK A01 T00211087  RH  045%=      5-min Rain = 0
KFL1 111138Z 07003KT 02/M09 A3014 RMK A01 T00221085  RH  045%=      5-min Rain = 0
KFL1 111139Z 07003KT 02/M09 A3013 RMK A01 T00221087  RH  044%=      5-min Rain = 0
KFL1 111140Z 07003KT 02/M09 A3013 RMK A01 T00231087  RH  044%=      5-min Rain = 0
KFL1 111141Z 08003KT 02/M08 A3014 RMK A01 T00241083  RH  045%=      5-min Rain = 0
KFL1 111142Z 07003KT 02/M08 A3014 RMK A01 T00221084  RH  045%=      5-min Rain = 0
KFL1 111143Z 08003KT 02/M08 A3014 RMK A01 T00231083  RH  045%=      5-min Rain = 0
KFL1 111144Z 08003KT 02/M09 A3014 RMK A01 T00231085  RH  045%=      5-min Rain = 0
KFL1 111145Z 09003KT 03/M09 A3014 RMK A01 T00251085  RH  044%=      5-min Rain = 0
KFL1 111146Z 08003KT 03/M09 A3014 RMK A01 T00251086  RH  044%=      5-min Rain = 0
KFL1 111147Z 08003KT 02/M09 A3014 RMK A01 T00241088  RH  043%=      5-min Rain = 0
KFL1 111148Z 08002KT 02/M09 A3014 RMK A01 T00241089  RH  043%=      5-min Rain = 0
KFL1 111149Z 07002KT 03/M09 A3014 RMK A01 T00261090  RH  042%=      5-min Rain = 0
KFL1 111150Z 07002KT 03/M09 A3014 RMK A01 T00251091  RH  042%=      5-min Rain = 0
KFL1 111151Z 06002KT 03/M09 A3014 RMK A01 T00251091  RH  042%=      5-min Rain = 0
KFL1 111152Z 07002KT 03/M09 A3014 RMK A01 T00251088  RH  043%=      5-min Rain = 0
KFL1 111153Z 06003KT 02/M09 A3014 RMK A01 T00241086  RH  044%=      5-min Rain = 0
KFL1 111154Z 05003KT 03/M08 A3014 RMK A01 T00251084  RH  045%=      5-min Rain = 0
KFL1 111155Z 05003KT 02/M09 A3014 RMK A01 T00231088  RH  044%=      5-min Rain = 0
KFL1 111156Z 05003KT 02/M09 A3014 RMK A01 T00221089  RH  043%=      5-min Rain = 0
KFL1 111157Z 05003KT 02/M09 A3014 RMK A01 T00221085  RH  045%=      5-min Rain = 0
KFL1 111158Z 05003KT 02/M08 A3014 RMK A01 T00231083  RH  045%=      5-min Rain = 0
KFL1 111159Z 04003KT 02/M09 A3014 RMK A01 T00221088  RH  044%=      5-min Rain = 0
KFL1 111200Z 05004KT 02/M09 A3014 RMK A01 T00241090  RH  043%=      5-min Rain = 0
KFL1 111201Z 05004KT 02/M09 A3014 RMK A01 T00241090  RH  043%=      5-min Rain = 0
KFL1 111202Z 05004KT 03/M09 A3014 RMK A01 T00251090  RH  042%=      5-min Rain = 0
KFL1 111203Z 05004KT 03/M09 A3014 RMK A01 T00251091  RH  042%=      5-min Rain = 0
KFL1 111204Z 05004KT 02/M09 A3014 RMK A01 T00241092  RH  042%=      5-min Rain = 0
KFL1 111205Z 05004KT 03/M09 A3014 RMK A01 T00271090  RH  042%=      5-min Rain = 0
KFL1 111206Z 05004KT 03/M09 A3015 RMK A01 T00261089  RH  042%=      5-min Rain = 0
KFL1 111207Z 06004KT 02/M09 A3015 RMK A01 T00241090  RH  043%=      5-min Rain = 0
KFL1 111208Z 05004KT 03/M09 A3015 RMK A01 T00261085  RH  044%=      5-min Rain = 0
KFL1 111209Z 06005KT 02/M08 A3015 RMK A01 T00241084  RH  045%=      5-min Rain = 0
KFL1 111210Z 05005KT 02/M08 A3015 RMK A01 T00231082  RH  046%=      5-min Rain = 0
KFL1 111211Z 05005KT 02/M08 A3014 RMK A01 T00221081  RH  046%=      5-min Rain = 0
KFL1 111212Z 05005KT 02/M08 A3014 RMK A01 T00241078  RH  047%=      5-min Rain = 0
KFL1 111213Z 06005KT 02/M08 A3014 RMK A01 T00221079  RH  047%=      5-min Rain = 0
KFL1 111214Z 06004KT 02/M08 A3014 RMK A01 T00231079  RH  047%=      5-min Rain = 0
KFL1 111215Z 05004KT 02/M08 A3014 RMK A01 T00231080  RH  047%=      5-min Rain = 0
KFL1 111216Z 05004KT 02/M08 A3015 RMK A01 T00231082  RH  046%=      5-min Rain = 0
KFL1 111217Z 04004KT 02/M09 A3015 RMK A01 T00231085  RH  045%=      5-min Rain = 0
KFL1 111218Z 04003KT 03/M09 A3015 RMK A01 T00251085  RH  044%=      5-min Rain = 0
KFL1 111219Z 03004KT 03/M09 A3015 RMK A01 T00251087  RH  044%=      5-min Rain = 0
KFL1 111220Z 03004KT 03/M09 A3015 RMK A01 T00261086  RH  044%=      5-min Rain = 0
KFL1 111221Z 03004KT 03/M09 A3015 RMK A01 T00251085  RH  044%=      5-min Rain = 0
KFL1 111222Z 03004KT 03/M08 A3015 RMK A01 T00251081  RH  045%=      5-min Rain = 0
KFL1 111223Z 02004KT 02/M08 A3015 RMK A01 T00231075  RH  048%=      5-min Rain = 0
KFL1 111224Z 03005KT 02/M07 A3015 RMK A01 T00191068  RH  052%=      5-min Rain = 0
KFL1 111225Z 03004KT 02/M07 A3015 RMK A01 T00161069  RH  053%=      5-min Rain = 0
KFL1 111226Z 03004KT 02/M07 A3015 RMK A01 T00151074  RH  052%=      5-min Rain = 0
KFL1 111227Z 02004KT 02/M08 A3015 RMK A01 T00151076  RH  051%=      5-min Rain = 0
KFL1 111228Z 03004KT 02/M07 A3015 RMK A01 T00161074  RH  051%=      5-min Rain = 0
KFL1 111229Z 03004KT 02/M07 A3015 RMK A01 T00181074  RH  051%=      5-min Rain = 0
KFL1 111230Z 03004KT 02/M08 A3015 RMK A01 T00181078  RH  049%=      5-min Rain = 0
KFL1 111231Z 03004KT 02/M08 A3015 RMK A01 T00191082  RH  047%=      5-min Rain = 0
KFL1 111232Z 03004KT 02/M08 A3015 RMK A01 T00201076  RH  049%=      5-min Rain = 0
KFL1 111233Z 03003KT 02/M08 A3015 RMK A01 T00191076  RH  049%=      5-min Rain = 0
KFL1 111234Z 04003KT 02/M08 A3015 RMK A01 T00201078  RH  048%=      5-min Rain = 0
KFL1 111235Z 04004KT 02/M08 A3015 RMK A01 T00201083  RH  046%=      5-min Rain = 0
KFL1 111236Z 04003KT 02/M09 A3015 RMK A01 T00231090  RH  043%=      5-min Rain = 0
KFL1 111237Z 04003KT 02/M10 A3015 RMK A01 T00231096  RH  041%=      5-min Rain = 0
KFL1 111238Z 05003KT 03/M10 A3016 RMK A01 T00251097  RH  040%=      5-min Rain = 0
KFL1 111239Z 05003KT 03/M10 A3016 RMK A01 T00261097  RH  040%=      5-min Rain = 0
KFL1 111240Z 05003KT 03/M10 A3016 RMK A01 T00281098  RH  039%=      5-min Rain = 0
KFL1 111241Z 05003KT 03/M10 A3016 RMK A01 T00281099  RH  039%=      5-min Rain = 0
KFL1 111242Z 05003KT 03/M09 A3016 RMK A01 T00291094  RH  040%=      5-min Rain = 0
KFL1 111243Z 04003KT 03/M10 A3016 RMK A01 T00291097  RH  039%=      5-min Rain = 0
KFL1 111244Z 05003KT 03/M10 A3016 RMK A01 T00291098  RH  039%=      5-min Rain = 0
KFL1 111245Z 04003KT 03/M10 A3016 RMK A01 T00291098  RH  039%=      5-min Rain = 0
KFL1 111246Z 04004KT 03/M10 A3016 RMK A01 T00291098  RH  039%=      5-min Rain = 0
KFL1 111247Z 04004KT 03/M10 A3016 RMK A01 T00321095  RH  039%=      5-min Rain = 0
KFL1 111248Z 05004KT 03/M10 A3016 RMK A01 T00301097  RH  039%=      5-min Rain = 0
KFL1 111249Z 05004KT 03/M09 A3016 RMK A01 T00311094  RH  039%=      5-min Rain = 0
KFL1 111250Z 05004KT 03/M10 A3016 RMK A01 T00291096  RH  039%=      5-min Rain = 0
KFL1 111251Z 05004KT 03/M10 A3016 RMK A01 T00291096  RH  039%=      5-min Rain = 0
KFL1 111252Z 05003KT 03/M09 A3016 RMK A01 T00291094  RH  040%=      5-min Rain = 0
KFL1 111253Z 05004KT 03/M09 A3016 RMK A01 T00291093  RH  040%=      5-min Rain = 0
KFL1 111254Z 05004KT 03/M09 A3016 RMK A01 T00291094  RH  040%=      5-min Rain = 0
KFL1 111255Z 05004KT 03/M10 A3016 RMK A01 T00271095  RH  040%=      5-min Rain = 0
KFL1 111256Z 05004KT 03/M10 A3016 RMK A01 T00281095  RH  040%=      5-min Rain = 0
KFL1 111257Z 05004KT 03/M10 A3016 RMK A01 T00271096  RH  040%=      5-min Rain = 0
KFL1 111258Z 05004KT 03/M09 A3016 RMK A01 T00281094  RH  040%=      5-min Rain = 0
KFL1 111259Z 04004KT 03/M09 A3016 RMK A01 T00271094  RH  040%=      5-min Rain = 0
KFL1 111300Z 05004KT 03/M10 A3016 RMK A01 T00271095  RH  040%=      5-min Rain = 0
KFL1 111301Z 05004KT 03/M10 A3016 RMK A01 T00271095  RH  040%=      5-min Rain = 0
KFL1 111302Z 05004KT 03/M10 A3016 RMK A01 T00271095  RH  040%=      5-min Rain = 0
KFL1 111303Z 05004KT 03/M09 A3016 RMK A01 T00291094  RH  040%=      5-min Rain = 0
KFL1 111304Z 04004KT 03/M10 A3016 RMK A01 T00281096  RH  040%=      5-min Rain = 0
KFL1 111305Z 05004KT 03/M10 A3016 RMK A01 T00291096  RH  039%=      5-min Rain = 0
KFL1 111306Z 05004KT 03/M10 A3016 RMK A01 T00281097  RH  039%=      5-min Rain = 0
KFL1 111307Z 05004KT 03/M10 A3016 RMK A01 T00291095  RH  040%=      5-min Rain = 0
KFL1 111308Z 04004KT 03/M10 A3016 RMK A01 T00281095  RH  040%=      5-min Rain = 0
KFL1 111309Z 05004KT 03/M10 A3016 RMK A01 T00271096  RH  040%=      5-min Rain = 0
KFL1 111310Z 05004KT 03/M09 A3016 RMK A01 T00291094  RH  040%=      5-min Rain = 0
KFL1 111311Z 04004KT 03/M10 A3016 RMK A01 T00271095  RH  040%=      5-min Rain = 0
KFL1 111312Z 05004KT 03/M09 A3016 RMK A01 T00271094  RH  041%=      5-min Rain = 0
KFL1 111313Z 05003KT 03/M09 A3016 RMK A01 T00271094  RH  041%=      5-min Rain = 0
KFL1 111314Z 04003KT 03/M09 A3016 RMK A01 T00271092  RH  041%=      5-min Rain = 0
KFL1 111315Z 05003KT 03/M09 A3016 RMK A01 T00281091  RH  041%=      5-min Rain = 0
KFL1 111316Z 04003KT 03/M09 A3016 RMK A01 T00261094  RH  041%=      5-min Rain = 0
KFL1 111317Z 04004KT 03/M09 A3016 RMK A01 T00271093  RH  041%=      5-min Rain = 0
KFL1 111318Z 04004KT 03/M09 A3016 RMK A01 T00281090  RH  042%=      5-min Rain = 0
KFL1 111319Z 04004KT 03/M09 A3016 RMK A01 T00251089  RH  043%=      5-min Rain = 0
KFL1 111320Z 04004KT 02/M09 A3016 RMK A01 T00231092  RH  042%=      5-min Rain = 0
KFL1 111321Z 04004KT 03/M09 A3016 RMK A01 T00251092  RH  042%=      5-min Rain = 0
KFL1 111322Z 05005KT 03/M09 A3016 RMK A01 T00251094  RH  041%=      5-min Rain = 0
KFL1 111323Z 05005KT 03/M10 A3016 RMK A01 T00251096  RH  040%=      5-min Rain = 0
KFL1 111324Z 05005KT 03/M10 A3016 RMK A01 T00261096  RH  040%=      5-min Rain = 0
KFL1 111325Z 04005KT 03/M10 A3016 RMK A01 T00261096  RH  040%=      5-min Rain = 0
KFL1 111326Z 05005KT 03/M10 A3016 RMK A01 T00261096  RH  040%=      5-min Rain = 0
KFL1 111327Z 05005KT 03/M10 A3016 RMK A01 T00261096  RH  040%=      5-min Rain = 0
KFL1 111328Z 05004KT 03/M10 A3016 RMK A01 T00251096  RH  040%=      5-min Rain = 0
KFL1 111329Z 05004KT 03/M10 A3016 RMK A01 T00251097  RH  040%=      5-min Rain = 0
KFL1 111330Z 05005KT 03/M10 A3016 RMK A01 T00251097  RH  040%=      5-min Rain = 0
KFL1 111331Z 05005KT 03/M10 A3016 RMK A01 T00251096  RH  040%=      5-min Rain = 0
KFL1 111332Z 05005KT 03/M10 A3016 RMK A01 T00251095  RH  041%=      5-min Rain = 0
KFL1 111333Z 05005KT 03/M10 A3016 RMK A01 T00251095  RH  041%=      5-min Rain = 0
KFL1 111334Z 05005KT 03/M09 A3017 RMK A01 T00261094  RH  041%=      5-min Rain = 0
KFL1 111335Z 06004KT 03/M09 A3017 RMK A01 T00251094  RH  041%=      5-min Rain = 0
KFL1 111336Z 05005KT 03/M09 A3017 RMK A01 T00251094  RH  041%=      5-min Rain = 0
KFL1 111337Z 05005KT 03/M09 A3017 RMK A01 T00261092  RH  042%=      5-min Rain = 0
KFL1 111338Z 05005KT 03/M09 A3017 RMK A01 T00261091  RH  042%=      5-min Rain = 0
KFL1 111339Z 05005KT 02/M09 A3017 RMK A01 T00241091  RH  042%=      5-min Rain = 0
KFL1 111340Z 06005KT 02/M09 A3017 RMK A01 T00231090  RH  043%=      5-min Rain = 0
KFL1 111341Z 05004KT 02/M09 A3017 RMK A01 T00241088  RH  043%=      5-min Rain = 0
KFL1 111342Z 05005KT 02/M09 A3017 RMK A01 T00221089  RH  044%=      5-min Rain = 0
KFL1 111343Z 06004KT 02/M09 A3017 RMK A01 T00221088  RH  044%=      5-min Rain = 0
KFL1 111344Z 06004KT 02/M09 A3017 RMK A01 T00231086  RH  044%=      5-min Rain = 0
KFL1 111345Z 06005KT 02/M09 A3017 RMK A01 T00221087  RH  045%=      5-min Rain = 0
KFL1 111346Z 06005KT 02/M09 A3017 RMK A01 T00211086  RH  045%=      5-min Rain = 0
KFL1 111347Z 06004KT 02/M09 A3017 RMK A01 T00201085  RH  045%=      5-min Rain = 0
KFL1 111348Z 05004KT 02/M08 A3017 RMK A01 T00201084  RH  046%=      5-min Rain = 0
KFL1 111349Z 06004KT 02/M08 A3017 RMK A01 T00191084  RH  046%=      5-min Rain = 0
KFL1 111350Z 05005KT 02/M08 A3017 RMK A01 T00191084  RH  046%=      5-min Rain = 0
KFL1 111351Z 05005KT 02/M09 A3017 RMK A01 T00191085  RH  046%=      5-min Rain = 0
KFL1 111352Z 05004KT 02/M09 A3017 RMK A01 T00201087  RH  045%=      5-min Rain = 0
KFL1 111353Z 06005KT 02/M09 A3017 RMK A01 T00211088  RH  044%=      5-min Rain = 0
KFL1 111354Z 06004KT 02/M09 A3017 RMK A01 T00221088  RH  044%=      5-min Rain = 0
KFL1 111355Z 06004KT 02/M09 A3017 RMK A01 T00211089  RH  044%=      5-min Rain = 0
KFL1 111356Z 06005KT 02/M09 A3017 RMK A01 T00231088  RH  044%=      5-min Rain = 0
KFL1 111357Z 06004KT 02/M09 A3017 RMK A01 T00231087  RH  044%=      5-min Rain = 0
KFL1 111358Z 06004KT 02/M09 A3017 RMK A01 T00241086  RH  044%=      5-min Rain = 0
KFL1 111359Z 06005KT 03/M09 A3017 RMK A01 T00251085  RH  044%=      5-min Rain = 0
KFL1 111400Z 06005KT 02/M09 A3017 RMK A01 T00241087  RH  044%=      5-min Rain = 0
KFL1 111401Z 07004KT 03/M09 A3017 RMK A01 T00251085  RH  044%=      5-min Rain = 0
KFL1 111402Z 06004KT 02/M09 A3017 RMK A01 T00241085  RH  044%=      5-min Rain = 0
KFL1 111403Z 06003KT 03/M08 A3017 RMK A01 T00251084  RH  045%=      5-min Rain = 0
KFL1 111404Z 07003KT 03/M08 A3017 RMK A01 T00251083  RH  045%=      5-min Rain = 0
KFL1 111405Z 07004KT 03/M08 A3017 RMK A01 T00251083  RH  045%=      5-min Rain = 0
KFL1 111406Z 07003KT 03/M08 A3017 RMK A01 T00261083  RH  045%=      5-min Rain = 0
KFL1 111407Z 06003KT 03/M08 A3017 RMK A01 T00251082  RH  045%=      5-min Rain = 0
KFL1 111408Z 05002KT 03/M08 A3017 RMK A01 T00251084  RH  044%=      5-min Rain = 0
KFL1 111409Z 05003KT 03/M08 A3018 RMK A01 T00251084  RH  045%=      5-min Rain = 0
KFL1 111410Z 04002KT 03/M08 A3018 RMK A01 T00251083  RH  045%=      5-min Rain = 0
KFL1 111411Z 06003KT 03/M08 A3018 RMK A01 T00271082  RH  045%=      5-min Rain = 0
KFL1 111412Z 05003KT 03/M08 A3018 RMK A01 T00271082  RH  044%=      5-min Rain = 0
KFL1 111413Z 05002KT 03/M08 A3018 RMK A01 T00271083  RH  044%=      5-min Rain = 0
KFL1 111414Z 05002KT 03/M09 A3018 RMK A01 T00261085  RH  044%=      5-min Rain = 0
KFL1 111415Z 05003KT 03/M09 A3018 RMK A01 T00251086  RH  044%=      5-min Rain = 0
KFL1 111416Z 05003KT 03/M09 A3018 RMK A01 T00261087  RH  043%=      5-min Rain = 0
KFL1 111417Z 05003KT 03/M09 A3018 RMK A01 T00261089  RH  043%=      5-min Rain = 0
KFL1 111418Z 05003KT 03/M09 A3018 RMK A01 T00281088  RH  042%=      5-min Rain = 0
KFL1 111419Z 06003KT 03/M09 A3018 RMK A01 T00271089  RH  042%=      5-min Rain = 0
KFL1 111420Z 05002KT 03/M09 A3018 RMK A01 T00271088  RH  042%=      5-min Rain = 0
KFL1 111421Z 05003KT 03/M09 A3018 RMK A01 T00271089  RH  042%=      5-min Rain = 0
KFL1 111422Z 05003KT 03/M09 A3019 RMK A01 T00271087  RH  043%=      5-min Rain = 0
KFL1 111423Z 05003KT 03/M09 A3019 RMK A01 T00271086  RH  043%=      5-min Rain = 0
KFL1 111424Z 06003KT 03/M09 A3019 RMK A01 T00271087  RH  043%=      5-min Rain = 0
KFL1 111425Z 06004KT 03/M09 A3019 RMK A01 T00271086  RH  043%=      5-min Rain = 0
KFL1 111426Z 07004KT 03/M09 A3019 RMK A01 T00271085  RH  043%=      5-min Rain = 0
KFL1 111427Z 06004KT 03/M09 A3019 RMK A01 T00281086  RH  043%=      5-min Rain = 0
KFL1 111428Z 06004KT 03/M09 A3019 RMK A01 T00271088  RH  042%=      5-min Rain = 0
KFL1 111429Z 07004KT 03/M09 A3019 RMK A01 T00271088  RH  043%=      5-min Rain = 0
KFL1 111430Z 07003KT 03/M09 A3019 RMK A01 T00271088  RH  043%=      5-min Rain = 0
KFL1 111431Z 07002KT 03/M09 A3019 RMK A01 T00271088  RH  042%=      5-min Rain = 0
KFL1 111432Z 06002KT 03/M09 A3019 RMK A01 T00281086  RH  043%=      5-min Rain = 0
KFL1 111433Z 07003KT 03/M09 A3019 RMK A01 T00281085  RH  043%=      5-min Rain = 0
KFL1 111434Z 08003KT 03/M08 A3019 RMK A01 T00281083  RH  044%=      5-min Rain = 0
KFL1 111435Z 07003KT 03/M08 A3019 RMK A01 T00281083  RH  044%=      5-min Rain = 0
KFL1 111436Z 06003KT 03/M08 A3019 RMK A01 T00281081  RH  044%=      5-min Rain = 0
KFL1 111437Z 06003KT 03/M08 A3019 RMK A01 T00301078  RH  045%=      5-min Rain = 0
KFL1 111438Z 06003KT 03/M08 A3019 RMK A01 T00301078  RH  045%=      5-min Rain = 0
KFL1 111439Z 05003KT 03/M08 A3019 RMK A01 T00301080  RH  044%=      5-min Rain = 0
KFL1 111440Z 05003KT 03/M08 A3019 RMK A01 T00301081  RH  044%=      5-min Rain = 0
KFL1 111441Z 06002KT 03/M08 A3019 RMK A01 T00321080  RH  044%=      5-min Rain = 0
KFL1 111442Z 07002KT 03/M08 A3019 RMK A01 T00321081  RH  043%=      5-min Rain = 0
KFL1 111443Z 08002KT 03/M08 A3019 RMK A01 T00311082  RH  043%=      5-min Rain = 0
KFL1 111444Z 07002KT 03/M08 A3019 RMK A01 T00311081  RH  044%=      5-min Rain = 0
KFL1 111445Z 05002KT 03/M08 A3019 RMK A01 T00311078  RH  045%=      5-min Rain = 0
KFL1 111446Z 05002KT 03/M08 A3019 RMK A01 T00311077  RH  045%=      5-min Rain = 0
KFL1 111447Z 08002KT 03/M08 A3019 RMK A01 T00321076  RH  045%=      5-min Rain = 0
KFL1 111448Z 05002KT 03/M07 A3019 RMK A01 T00341074  RH  045%=      5-min Rain = 0
KFL1 111449Z 04002KT 03/M08 A3019 RMK A01 T00331075  RH  045%=      5-min Rain = 0
KFL1 111450Z 04002KT 04/M08 A3019 RMK A01 T00351076  RH  044%=      5-min Rain = 0
KFL1 111451Z 03001KT 03/M08 A3019 RMK A01 T00341077  RH  044%=      5-min Rain = 0
KFL1 111452Z 02002KT 04/M08 A3019 RMK A01 T00361078  RH  043%=      5-min Rain = 0
KFL1 111453Z 04002KT 04/M08 A302 RMK A01 T00361076  RH  044%=      5-min Rain = 0
KFL1 111454Z 05001KT 04/M08 A302 RMK A01 T00351076  RH  044%=      5-min Rain = 0
KFL1 111455Z 06002KT 04/M08 A302 RMK A01 T00361078  RH  043%=      5-min Rain = 0
KFL1 111456Z 06002KT 04/M08 A302 RMK A01 T00361076  RH  044%=      5-min Rain = 0
KFL1 111457Z 05001KT 04/M07 A302 RMK A01 T00381074  RH  044%=      5-min Rain = 0
KFL1 111458Z 02001KT 04/M07 A302 RMK A01 T00371065  RH  047%=      5-min Rain = 0
KFL1 111459Z 03000KT 04/M07 A302 RMK A01 T00371067  RH  047%=      5-min Rain = 0
KFL1 111500Z 07001KT 04/M07 A302 RMK A01 T00381072  RH  044%=      5-min Rain = 0
KFL1 111501Z 05001KT 04/M08 A302 RMK A01 T00371075  RH  044%=      5-min Rain = 0
KFL1 111502Z 04001KT 04/M07 A302 RMK A01 T00371072  RH  045%=      5-min Rain = 0
KFL1 111503Z 00000KT 04/M07 A302 RMK A01 T00381069  RH  046%=      5-min Rain = 0
KFL1 111504Z 02000KT 04/M07 A302 RMK A01 T00381067  RH  046%=      5-min Rain = 0
KFL1 111505Z 07001KT 04/M06 A302 RMK A01 T00381064  RH  047%=      5-min Rain = 0
KFL1 111506Z 07001KT 04/M06 A302 RMK A01 T00411056  RH  049%=      5-min Rain = 0
KFL1 111507Z 06001KT 04/M05 A302 RMK A01 T00411054  RH  050%=      5-min Rain = 0
KFL1 111508Z 11000KT 04/M06 A302 RMK A01 T00411055  RH  050%=      5-min Rain = 0
KFL1 111509Z 10000KT 04/M06 A302 RMK A01 T00421055  RH  049%=      5-min Rain = 0
KFL1 111510Z 12001KT 04/M05 A302 RMK A01 T00421053  RH  050%=      5-min Rain = 0
KFL1 111511Z 15001KT 04/M05 A302 RMK A01 T00431052  RH  050%=      5-min Rain = 0
KFL1 111512Z 17000KT 04/M05 A302 RMK A01 T00421052  RH  050%=      5-min Rain = 0
KFL1 111513Z 00000KT 04/M05 A302 RMK A01 T00441049  RH  051%=      5-min Rain = 0
KFL1 111514Z 21000KT 04/M04 A302 RMK A01 T00431044  RH  053%=      5-min Rain = 0
KFL1 111515Z 16001KT 04/M04 A302 RMK A01 T00441043  RH  053%=      5-min Rain = 0
KFL1 111516Z 18002KT 04/M04 A302 RMK A01 T00441042  RH  053%=      5-min Rain = 0
KFL1 111517Z 15003KT 04/M04 A302 RMK A01 T00431042  RH  054%=      5-min Rain = 0
KFL1 111518Z 15003KT 04/M04 A302 RMK A01 T00441042  RH  054%=      5-min Rain = 0
KFL1 111519Z 17003KT 04/M04 A302 RMK A01 T00441038  RH  055%=      5-min Rain = 0
KFL1 111520Z 17001KT 04/M04 A302 RMK A01 T00441037  RH  056%=      5-min Rain = 0
KFL1 111521Z 18002KT 05/M04 A302 RMK A01 T00451037  RH  055%=      5-min Rain = 0
KFL1 111522Z 16002KT 05/M04 A302 RMK A01 T00451035  RH  056%=      5-min Rain = 0
KFL1 111523Z 16002KT 05/M04 A302 RMK A01 T00461036  RH  055%=      5-min Rain = 0
KFL1 111524Z 17002KT 05/M04 A302 RMK A01 T00451039  RH  054%=      5-min Rain = 0
KFL1 111525Z 18002KT 05/M04 A302 RMK A01 T00451039  RH  055%=      5-min Rain = 0
KFL1 111526Z 18002KT 05/M03 A302 RMK A01 T00461033  RH  057%=      5-min Rain = 0
KFL1 111527Z 19005KT 05/M03 A302 RMK A01 T00451029  RH  058%=      5-min Rain = 0
KFL1 111528Z 17004KT 04/M03 A302 RMK A01 T00441029  RH  059%=      5-min Rain = 0
KFL1 111529Z 18003KT 04/M03 A302 RMK A01 T00431030  RH  059%=      5-min Rain = 0
KFL1 111530Z 20003KT 04/M03 A302 RMK A01 T00431028  RH  060%=      5-min Rain = 0
KFL1 111531Z 21005KT 04/M02 A302 RMK A01 T00431024  RH  062%=      5-min Rain = 0
KFL1 111532Z 20005KT 04/M02 A302 RMK A01 T00441022  RH  062%=      5-min Rain = 0
KFL1 111533Z 19005KT 04/M02 A302 RMK A01 T00441022  RH  062%=      5-min Rain = 0
KFL1 111534Z 18003KT 05/M02 A302 RMK A01 T00451022  RH  062%=      5-min Rain = 0
KFL1 111535Z 19003KT 04/M02 A302 RMK A01 T00441024  RH  062%=      5-min Rain = 0
KFL1 111536Z 20003KT 05/M02 A302 RMK A01 T00451023  RH  061%=      5-min Rain = 0
KFL1 111537Z 21003KT 05/M02 A302 RMK A01 T00461021  RH  062%=      5-min Rain = 0
KFL1 111538Z 20005KT 05/M02 A302 RMK A01 T00461021  RH  062%=      5-min Rain = 0
KFL1 111539Z 19004KT 05/M02 A3021 RMK A01 T00461022  RH  061%=      5-min Rain = 0
KFL1 111540Z 18005KT 05/M02 A3021 RMK A01 T00451024  RH  061%=      5-min Rain = 0
KFL1 111541Z 17003KT 05/M02 A3021 RMK A01 T00461023  RH  061%=      5-min Rain = 0
KFL1 111542Z 19003KT 05/M02 A3021 RMK A01 T00461024  RH  060%=      5-min Rain = 0
KFL1 111543Z 20003KT 05/M03 A3021 RMK A01 T00461025  RH  060%=      5-min Rain = 0
KFL1 111544Z 19003KT 05/M03 A3021 RMK A01 T00471025  RH  060%=      5-min Rain = 0
KFL1 111545Z 20002KT 05/M03 A3021 RMK A01 T00461026  RH  059%=      5-min Rain = 0
KFL1 111546Z 19003KT 05/M02 A3021 RMK A01 T00461024  RH  060%=      5-min Rain = 0
KFL1 111547Z 23002KT 05/M02 A3021 RMK A01 T00461023  RH  061%=      5-min Rain = 0
KFL1 111548Z 22001KT 05/M02 A3021 RMK A01 T00461021  RH  062%=      5-min Rain = 0
KFL1 111549Z 21003KT 05/M02 A3021 RMK A01 T00471019  RH  062%=      5-min Rain = 0
KFL1 111550Z 21003KT 05/M02 A3021 RMK A01 T00481017  RH  063%=      5-min Rain = 0
KFL1 111551Z 22003KT 05/M02 A3021 RMK A01 T00491016  RH  063%=      5-min Rain = 0
KFL1 111552Z 24003KT 05/M02 A3021 RMK A01 T00491017  RH  063%=      5-min Rain = 0
KFL1 111553Z 22003KT 05/M02 A3021 RMK A01 T00481017  RH  063%=      5-min Rain = 0
KFL1 111554Z 22004KT 05/M02 A3021 RMK A01 T00481016  RH  063%=      5-min Rain = 0
KFL1 111555Z 21004KT 05/M02 A3021 RMK A01 T00481016  RH  063%=      5-min Rain = 0
KFL1 111556Z 21003KT 05/M02 A3021 RMK A01 T00481017  RH  063%=      5-min Rain = 0
KFL1 111557Z 22002KT 05/M02 A3021 RMK A01 T00471018  RH  063%=      5-min Rain = 0
KFL1 111558Z 20002KT 05/M02 A3021 RMK A01 T00471018  RH  063%=      5-min Rain = 0
KFL1 111559Z 22002KT 05/M02 A3021 RMK A01 T00471016  RH  064%=      5-min Rain = 0
KFL1 111600Z 23002KT 05/M01 A3021 RMK A01 T00471013  RH  065%=      5-min Rain = 0
KFL1 111601Z 23003KT 05/M01 A3021 RMK A01 T00471013  RH  065%=      5-min Rain = 0
KFL1 111602Z 22003KT 05/M01 A3022 RMK A01 T00471012  RH  065%=      5-min Rain = 0
KFL1 111603Z 21004KT 05/M01 A3022 RMK A01 T00471013  RH  065%=      5-min Rain = 0
KFL1 111604Z 20002KT 05/M01 A3022 RMK A01 T00461012  RH  066%=      5-min Rain = 0
KFL1 111605Z 23004KT 05/M01 A3022 RMK A01 T00451013  RH  066%=      5-min Rain = 0
KFL1 111606Z 23004KT 05/M01 A3022 RMK A01 T00461011  RH  067%=      5-min Rain = 0
KFL1 111607Z 23005KT 05/M01 A3022 RMK A01 T00461010  RH  067%=      5-min Rain = 0
KFL1 111608Z 23005KT 05/M01 A3022 RMK A01 T00471011  RH  066%=      5-min Rain = 0
KFL1 111609Z 24003KT 05/M01 A3022 RMK A01 T00451012  RH  066%=      5-min Rain = 0
KFL1 111610Z 24002KT 05/M01 A3022 RMK A01 T00461011  RH  067%=      5-min Rain = 0
KFL1 111611Z 22003KT 05/M01 A3022 RMK A01 T00451011  RH  067%=      5-min Rain = 0
KFL1 111612Z 24002KT 05/M01 A3022 RMK A01 T00451012  RH  067%=      5-min Rain = 0
KFL1 111613Z 23002KT 05/M01 A3022 RMK A01 T00461010  RH  067%=      5-min Rain = 0
KFL1 111614Z 23003KT 05/M01 A3022 RMK A01 T00461011  RH  067%=      5-min Rain = 0
KFL1 111615Z 24003KT 05/M01 A3022 RMK A01 T00471009  RH  067%=      5-min Rain = 0
KFL1 111616Z 24002KT 05/M01 A3022 RMK A01 T00471009  RH  067%=      5-min Rain = 0
KFL1 111617Z 22004KT 05/M01 A3022 RMK A01 T00481009  RH  067%=      5-min Rain = 0
KFL1 111618Z 22003KT 05/M01 A3022 RMK A01 T00471009  RH  067%=      5-min Rain = 0
KFL1 111619Z 22002KT 05/M01 A3022 RMK A01 T00471009  RH  067%=      5-min Rain = 0
KFL1 111620Z 23003KT 05/M01 A3022 RMK A01 T00481008  RH  067%=      5-min Rain = 0
KFL1 111621Z 22002KT 05/M01 A3022 RMK A01 T00471009  RH  067%=      5-min Rain = 0
KFL1 111622Z 21003KT 05/M01 A3022 RMK A01 T00471009  RH  067%=      5-min Rain = 0
KFL1 111623Z 22003KT 05/M01 A3022 RMK A01 T00461009  RH  067%=      5-min Rain = 0
KFL1 111624Z 23003KT 05/M01 A3022 RMK A01 T00451010  RH  067%=      5-min Rain = 0
KFL1 111625Z 24003KT 05/M01 A3022 RMK A01 T00461010  RH  067%=      5-min Rain = 0
KFL1 111626Z 25003KT 05/M01 A3022 RMK A01 T00451009  RH  068%=      5-min Rain = 0
KFL1 111627Z 19000KT 04/M01 A3023 RMK A01 T00441010  RH  068%=      5-min Rain = 0
KFL1 111628Z 21002KT 05/M01 A3023 RMK A01 T00451009  RH  068%=      5-min Rain = 0
KFL1 111629Z 21002KT 04/M01 A3023 RMK A01 T00441009  RH  068%=      5-min Rain = 0
KFL1 111630Z 21002KT 05/M01 A3023 RMK A01 T00451008  RH  069%=      5-min Rain = 0
KFL1 111631Z 20002KT 04/M01 A3023 RMK A01 T00431009  RH  069%=      5-min Rain = 0
KFL1 111632Z 20001KT 04/M01 A3023 RMK A01 T00441008  RH  069%=      5-min Rain = 0
KFL1 111633Z 19000KT 04/M01 A3023 RMK A01 T00441009  RH  069%=      5-min Rain = 0
KFL1 111634Z 26002KT 05/M01 A3023 RMK A01 T00451007  RH  069%=      5-min Rain = 0
KFL1 111635Z 25004KT 04/M01 A3023 RMK A01 T00441007  RH  069%=      5-min Rain = 0
KFL1 111636Z 26003KT 04/M01 A3023 RMK A01 T00441008  RH  069%=      5-min Rain = 0
KFL1 111637Z 24003KT 04/M01 A3023 RMK A01 T00441008  RH  069%=      5-min Rain = 0
KFL1 111638Z 21002KT 04/M01 A3023 RMK A01 T00441007  RH  069%=      5-min Rain = 0
KFL1 111639Z 20002KT 04/M01 A3023 RMK A01 T00441007  RH  069%=      5-min Rain = 0
KFL1 111640Z 19001KT 04/M01 A3023 RMK A01 T00431008  RH  070%=      5-min Rain = 0
KFL1 111641Z 12001KT 04/M01 A3023 RMK A01 T00421008  RH  070%=      5-min Rain = 0
KFL1 111642Z 09001KT 04/M01 A3023 RMK A01 T00431007  RH  070%=      5-min Rain = 0
KFL1 111643Z 02001KT 04/M01 A3023 RMK A01 T00421007  RH  070%=      5-min Rain = 0
KFL1 111644Z 17001KT 04/M01 A3023 RMK A01 T00421007  RH  070%=      5-min Rain = 0
KFL1 111645Z 20003KT 04/M01 A3023 RMK A01 T00441005  RH  070%=      5-min Rain = 0
KFL1 111646Z 21003KT 04/M01 A3023 RMK A01 T00431007  RH  070%=      5-min Rain = 0
KFL1 111647Z 20003KT 04/M01 A3023 RMK A01 T00441007  RH  070%=      5-min Rain = 0
KFL1 111648Z 20003KT 05/M01 A3023 RMK A01 T00451005  RH  070%=      5-min Rain = 0
KFL1 111649Z 20002KT 04/M01 A3023 RMK A01 T00441007  RH  070%=      5-min Rain = 0
KFL1 111650Z 17002KT 05/M01 A3023 RMK A01 T00451005  RH  070%=      5-min Rain = 0
KFL1 111651Z 17001KT 04/M01 A3023 RMK A01 T00441006  RH  070%=      5-min Rain = 0
KFL1 111652Z 17002KT 05/M01 A3023 RMK A01 T00451006  RH  070%=      5-min Rain = 0
KFL1 111653Z 18001KT 04/M01 A3023 RMK A01 T00431006  RH  070%=      5-min Rain = 0
KFL1 111654Z 21002KT 05/M00 A3023 RMK A01 T00451002  RH  071%=      5-min Rain = 0
KFL1 111655Z 21002KT 04/M01 A3023 RMK A01 T00441005  RH  070%=      5-min Rain = 0
KFL1 111656Z 22001KT 05/M00 A3023 RMK A01 T00451004  RH  070%=      5-min Rain = 0
KFL1 111657Z 27001KT 04/M00 A3023 RMK A01 T00441004  RH  071%=      5-min Rain = 0
KFL1 111658Z 26001KT 04/M00 A3023 RMK A01 T00441002  RH  072%=      5-min Rain = 0
KFL1 111659Z 26001KT 04/M00 A3023 RMK A01 T00431002  RH  072%=      5-min Rain = 0
KFL1 111700Z 14001KT 04/00 A3023 RMK A01 T00430001  RH  074%=      5-min Rain = 0
KFL1 111701Z 17002KT 04/00 A3023 RMK A01 T00430001  RH  074%=      5-min Rain = 0
KFL1 111702Z 15001KT 04/00 A3023 RMK A01 T004400-0  RH  073%=      5-min Rain = 0
KFL1 111703Z 20002KT 04/00 A3023 RMK A01 T00440001  RH  074%=      5-min Rain = 0
KFL1 111704Z 19004KT 04/00 A3023 RMK A01 T00440003  RH  075%=      5-min Rain = 0
KFL1 111705Z 20002KT 04/00 A3023 RMK A01 T00430000  RH  074%=      5-min Rain = 0
KFL1 111706Z 20001KT 04/M00 A3023 RMK A01 T00421001  RH  073%=      5-min Rain = 0
KFL1 111707Z 21000KT 04/00 A3023 RMK A01 T00410001  RH  075%=      5-min Rain = 0
KFL1 111708Z 00000KT 04/00 A3023 RMK A01 T00420004  RH  076%=      5-min Rain = 0
KFL1 111709Z 00000KT 04/00 A3023 RMK A01 T00420004  RH  076%=      5-min Rain = 0
KFL1 111710Z 00000KT 04/00 A3023 RMK A01 T00430003  RH  075%=      5-min Rain = 0
KFL1 111711Z 14001KT 04/00 A3023 RMK A01 T00420001  RH  075%=      5-min Rain = 0
KFL1 111712Z 14001KT 04/00 A3023 RMK A01 T00430001  RH  074%=      5-min Rain = 0
KFL1 111713Z 10002KT 04/00 A3023 RMK A01 T00420004  RH  076%=      5-min Rain = 0
KFL1 111714Z 13001KT 04/00 A3023 RMK A01 T00420000  RH  074%=      5-min Rain = 0
KFL1 111715Z 13001KT 04/M00 A3023 RMK A01 T00421002  RH  073%=      5-min Rain = 0
KFL1 111716Z 11001KT 04/M00 A3023 RMK A01 T00411001  RH  074%=      5-min Rain = 0
KFL1 111717Z 08003KT 04/00 A3023 RMK A01 T00400001  RH  075%=      5-min Rain = 0
KFL1 111718Z 07002KT 04/00 A3023 RMK A01 T00410001  RH  075%=      5-min Rain = 0
KFL1 111719Z 07001KT 04/M00 A3023 RMK A01 T00411003  RH  073%=      5-min Rain = 0
KFL1 111720Z 09001KT 04/M00 A3023 RMK A01 T00411003  RH  073%=      5-min Rain = 0
KFL1 111721Z 13000KT 04/M00 A3023 RMK A01 T00421001  RH  074%=      5-min Rain = 0
KFL1 111722Z 01000KT 04/M00 A3023 RMK A01 T00401003  RH  073%=      5-min Rain = 0
KFL1 111723Z 12000KT 04/M00 A3023 RMK A01 T00411003  RH  073%=      5-min Rain = 0
KFL1 111724Z 10001KT 04/M01 A3023 RMK A01 T00411005  RH  072%=      5-min Rain = 0
KFL1 111725Z 04000KT 04/M00 A3023 RMK A01 T00421003  RH  072%=      5-min Rain = 0
KFL1 111726Z 02000KT 04/M01 A3023 RMK A01 T00421005  RH  071%=      5-min Rain = 0
KFL1 111727Z 02000KT 04/M00 A3023 RMK A01 T00431002  RH  072%=      5-min Rain = 0
KFL1 111728Z 04000KT 04/M00 A3023 RMK A01 T00431003  RH  072%=      5-min Rain = 0
KFL1 111729Z 00000KT 05/M00 A3023 RMK A01 T00451001  RH  072%=      5-min Rain = 0
KFL1 111730Z 30001KT 05/M00 A3023 RMK A01 T00451001  RH  072%=      5-min Rain = 0
KFL1 111731Z 29000KT 05/M00 A3023 RMK A01 T00451004  RH  071%=      5-min Rain = 0
KFL1 111732Z 00000KT 05/M01 A3023 RMK A01 T00451005  RH  070%=      5-min Rain = 0
KFL1 111733Z 00000KT 05/M01 A3023 RMK A01 T00451006  RH  069%=      5-min Rain = 0
KFL1 111734Z 08000KT 05/M01 A3023 RMK A01 T00461005  RH  069%=      5-min Rain = 0
KFL1 111735Z 06000KT 05/M00 A3023 RMK A01 T00451004  RH  071%=      5-min Rain = 0
KFL1 111736Z 10002KT 05/M01 A3024 RMK A01 T00451006  RH  069%=      5-min Rain = 0
KFL1 111737Z 12004KT 05/M01 A3024 RMK A01 T00461008  RH  068%=      5-min Rain = 0
KFL1 111738Z 11005KT 05/M01 A3024 RMK A01 T00471011  RH  066%=      5-min Rain = 0
KFL1 111739Z 11003KT 05/M02 A3024 RMK A01 T00491017  RH  062%=      5-min Rain = 0
KFL1 111740Z 12004KT 05/M02 A3024 RMK A01 T00471022  RH  061%=      5-min Rain = 0
KFL1 111741Z 10004KT 05/M02 A3024 RMK A01 T00461021  RH  062%=      5-min Rain = 0
KFL1 111742Z 09005KT 05/M01 A3024 RMK A01 T00471013  RH  065%=      5-min Rain = 0
KFL1 111743Z 11004KT 05/M01 A3024 RMK A01 T00501012  RH  064%=      5-min Rain = 0
KFL1 111744Z 12006KT 05/M01 A3024 RMK A01 T00511014  RH  063%=      5-min Rain = 0
KFL1 111745Z 15005KT 05/M01 A3024 RMK A01 T00541012  RH  063%=      5-min Rain = 0
KFL1 111746Z 13006KT 05/M01 A3024 RMK A01 T00541013  RH  062%=      5-min Rain = 0
KFL1 111747Z 13005KT 06/M02 A3024 RMK A01 T00551018  RH  060%=      5-min Rain = 0
KFL1 111748Z 13005KT 05/M02 A3024 RMK A01 T00541019  RH  059%=      5-min Rain = 0
KFL1 111749Z 13005KT 05/M02 A3024 RMK A01 T00531020  RH  059%=      5-min Rain = 0
KFL1 111750Z 14004KT 05/M02 A3024 RMK A01 T00531020  RH  059%=      5-min Rain = 0
KFL1 111751Z 14004KT 05/M02 A3024 RMK A01 T00531019  RH  060%=      5-min Rain = 0
KFL1 111752Z 12005KT 05/M02 A3024 RMK A01 T00521020  RH  060%=      5-min Rain = 0
KFL1 111753Z 14004KT 05/M02 A3024 RMK A01 T00541017  RH  060%=      5-min Rain = 0
KFL1 111754Z 15004KT 05/M02 A3024 RMK A01 T00541019  RH  059%=      5-min Rain = 0
KFL1 111755Z 13004KT 05/M02 A3024 RMK A01 T00541020  RH  059%=      5-min Rain = 0
KFL1 111756Z 12005KT 06/M02 A3024 RMK A01 T00551019  RH  059%=      5-min Rain = 0
KFL1 111757Z 15003KT 06/M02 A3024 RMK A01 T00551019  RH  059%=      5-min Rain = 0
KFL1 111758Z 15002KT 06/M02 A3024 RMK A01 T00551020  RH  059%=      5-min Rain = 0
KFL1 111759Z 18003KT 06/M01 A3024 RMK A01 T00561012  RH  061%=      5-min Rain = 0
KFL1 111800Z 16003KT 06/M01 A3024 RMK A01 T00551009  RH  063%=      5-min Rain = 0
KFL1 111801Z 14005KT 06/M01 A3024 RMK A01 T00571007  RH  063%=      5-min Rain = 0
KFL1 111802Z 15006KT 06/M01 A3024 RMK A01 T00561006  RH  064%=      5-min Rain = 0
KFL1 111803Z 16004KT 06/M00 A3024 RMK A01 T00571002  RH  066%=      5-min Rain = 0
KFL1 111804Z 17005KT 06/M00 A3024 RMK A01 T00611001  RH  064%=      5-min Rain = 0
KFL1 111805Z 18004KT 06/M01 A3024 RMK A01 T00621006  RH  062%=      5-min Rain = 0
KFL1 111806Z 18005KT 06/M01 A3024 RMK A01 T00611006  RH  062%=      5-min Rain = 0
KFL1 111807Z 18004KT 06/M01 A3024 RMK A01 T00601006  RH  062%=      5-min Rain = 0
KFL1 111808Z 18005KT 06/M01 A3024 RMK A01 T00601010  RH  061%=      5-min Rain = 0
KFL1 111809Z 12004KT 06/M01 A3024 RMK A01 T00611011  RH  060%=      5-min Rain = 0
KFL1 111810Z 12005KT 06/M01 A3024 RMK A01 T00611010  RH  061%=      5-min Rain = 0
KFL1 111811Z 12003KT 06/M02 A3024 RMK A01 T00601021  RH  056%=      5-min Rain = 0
KFL1 111812Z 10003KT 06/M02 A3024 RMK A01 T00591021  RH  057%=      5-min Rain = 0
KFL1 111813Z 11005KT 06/M02 A3024 RMK A01 T00581024  RH  056%=      5-min Rain = 0
KFL1 111814Z 10004KT 06/M02 A3024 RMK A01 T00591022  RH  056%=      5-min Rain = 0
KFL1 111815Z 11003KT 06/M02 A3024 RMK A01 T00581021  RH  057%=      5-min Rain = 0
KFL1 111816Z 15003KT 06/M02 A3024 RMK A01 T00591019  RH  057%=      5-min Rain = 0
KFL1 111817Z 22007KT 06/M01 A3024 RMK A01 T00621010  RH  060%=      5-min Rain = 0
KFL1 111818Z 23006KT 06/M01 A3024 RMK A01 T00621012  RH  059%=      5-min Rain = 0
KFL1 111819Z 21006KT 06/M01 A3024 RMK A01 T00611012  RH  060%=      5-min Rain = 0
KFL1 111820Z 18005KT 06/M01 A3024 RMK A01 T00611010  RH  060%=      5-min Rain = 0
KFL1 111821Z 17004KT 06/M01 A3024 RMK A01 T00611011  RH  060%=      5-min Rain = 0
KFL1 111822Z 13003KT 06/M01 A3024 RMK A01 T00611010  RH  060%=      5-min Rain = 0
KFL1 111823Z 12007KT 06/M01 A3024 RMK A01 T00621012  RH  059%=      5-min Rain = 0
KFL1 111824Z 12006KT 06/M02 A3024 RMK A01 T00621018  RH  057%=      5-min Rain = 0
KFL1 111825Z 12005KT 06/M02 A3024 RMK A01 T00601018  RH  057%=      5-min Rain = 0
KFL1 111826Z 13003KT 06/M02 A3024 RMK A01 T00621016  RH  057%=      5-min Rain = 0
KFL1 111827Z 16001KT 06/M01 A3024 RMK A01 T00631013  RH  058%=      5-min Rain = 0
KFL1 111828Z 17006KT 06/M01 A3024 RMK A01 T00621013  RH  058%=      5-min Rain = 0
KFL1 111829Z 15004G10KT 06/M02 A3024 RMK A01 T00601017  RH  058%=      5-min Rain = 0
KFL1 111830Z 16002G7KT 06/M02 A3024 RMK A01 T00581017  RH  058%=      5-min Rain = 0
KFL1 111831Z 17009KT 06/M02 A3024 RMK A01 T00581015  RH  059%=      5-min Rain = 0
KFL1 111832Z 17007KT 06/M01 A3024 RMK A01 T00601014  RH  059%=      5-min Rain = 0
KFL1 111833Z 18008KT 06/M02 A3024 RMK A01 T00591015  RH  059%=      5-min Rain = 0
KFL1 111834Z 19006KT 06/M01 A3024 RMK A01 T00581013  RH  060%=      5-min Rain = 0
KFL1 111835Z 19007KT 06/M01 A3024 RMK A01 T00601013  RH  059%=      5-min Rain = 0
KFL1 111836Z 17007KT 06/M02 A3024 RMK A01 T00601019  RH  057%=      5-min Rain = 0
KFL1 111837Z 17008KT 06/M02 A3024 RMK A01 T00591020  RH  057%=      5-min Rain = 0
KFL1 111838Z 16008KT 06/M02 A3024 RMK A01 T00591020  RH  057%=      5-min Rain = 0
KFL1 111839Z 17007KT 06/M02 A3024 RMK A01 T00601021  RH  056%=      5-min Rain = 0
KFL1 111840Z 17007KT 06/M02 A3024 RMK A01 T00601020  RH  057%=      5-min Rain = 0
KFL1 111841Z 18008KT 06/M02 A3024 RMK A01 T00621017  RH  057%=      5-min Rain = 0
KFL1 111842Z 20008KT 06/M01 A3024 RMK A01 T00601012  RH  060%=      5-min Rain = 0
KFL1 111843Z 19008KT 06/M01 A3024 RMK A01 T00591008  RH  062%=      5-min Rain = 0
KFL1 111844Z 17006KT 06/M01 A3024 RMK A01 T00591007  RH  063%=      5-min Rain = 0
KFL1 111845Z 19007KT 06/M00 A3024 RMK A01 T00591003  RH  064%=      5-min Rain = 0
KFL1 111846Z 19009KT 06/M00 A3024 RMK A01 T00591004  RH  064%=      5-min Rain = 0
KFL1 111847Z 18008KT 06/M01 A3024 RMK A01 T00571007  RH  063%=      5-min Rain = 0
KFL1 111848Z 20008KT 06/M01 A3024 RMK A01 T00551005  RH  065%=      5-min Rain = 0
KFL1 111849Z 20008KT 06/M00 A3024 RMK A01 T00551002  RH  067%=      5-min Rain = 0
KFL1 111850Z 22007KT 06/00 A3024 RMK A01 T005600-0  RH  067%=      5-min Rain = 0
KFL1 111851Z 21007KT 06/00 A3024 RMK A01 T005700-0  RH  066%=      5-min Rain = 0
KFL1 111852Z 18006KT 06/M00 A3024 RMK A01 T00571001  RH  067%=      5-min Rain = 0
KFL1 111853Z 18007KT 06/M00 A3024 RMK A01 T00571002  RH  066%=      5-min Rain = 0
KFL1 111854Z 21007KT 06/M00 A3024 RMK A01 T00561004  RH  065%=      5-min Rain = 0
KFL1 111855Z 22007KT 06/M01 A3024 RMK A01 T00561005  RH  065%=      5-min Rain = 0
KFL1 111856Z 20008KT 06/M01 A3024 RMK A01 T00561006  RH  064%=      5-min Rain = 0
KFL1 111857Z 20008KT 06/M00 A3024 RMK A01 T00581004  RH  064%=      5-min Rain = 0
KFL1 111858Z 21008KT 06/M01 A3024 RMK A01 T00571006  RH  064%=      5-min Rain = 0
KFL1 111859Z 19007KT 06/M00 A3024 RMK A01 T00591003  RH  064%=      5-min Rain = 0
KFL1 111900Z 20006KT 06/M01 A3024 RMK A01 T00601006  RH  063%=      5-min Rain = 0
KFL1 111901Z 16006KT 06/M01 A3024 RMK A01 T00601006  RH  063%=      5-min Rain = 0
KFL1 111902Z 17006KT 06/M01 A3024 RMK A01 T00601009  RH  061%=      5-min Rain = 0
KFL1 111903Z 15005KT 06/M01 A3024 RMK A01 T00581014  RH  060%=      5-min Rain = 0
KFL1 111904Z 15005KT 06/M02 A3024 RMK A01 T00551016  RH  060%=      5-min Rain = 0
KFL1 111905Z 16003KT 06/M02 A3024 RMK A01 T00561015  RH  061%=      5-min Rain = 0
KFL1 111906Z 19001KT 06/M02 A3024 RMK A01 T00561015  RH  060%=      5-min Rain = 0
KFL1 111907Z 19003KT 06/M01 A3024 RMK A01 T00561013  RH  061%=      5-min Rain = 0
KFL1 111908Z 21005KT 06/M01 A3024 RMK A01 T00581010  RH  062%=      5-min Rain = 0
KFL1 111909Z 18004KT 06/M01 A3024 RMK A01 T00581013  RH  060%=      5-min Rain = 0
KFL1 111910Z 16003KT 06/M01 A3024 RMK A01 T00581014  RH  060%=      5-min Rain = 0
KFL1 111911Z 18006KT 06/M01 A3024 RMK A01 T00591011  RH  061%=      5-min Rain = 0
KFL1 111912Z 17005KT 06/M01 A3024 RMK A01 T00591013  RH  060%=      5-min Rain = 0
KFL1 111913Z 16006KT 06/M01 A3024 RMK A01 T00591014  RH  059%=      5-min Rain = 0
KFL1 111914Z 16006KT 06/M02 A3024 RMK A01 T00581016  RH  059%=      5-min Rain = 0
KFL1 111915Z 16005KT 06/M02 A3024 RMK A01 T00581017  RH  059%=      5-min Rain = 0
KFL1 111916Z 18005KT 06/M02 A3024 RMK A01 T00571019  RH  058%=      5-min Rain = 0
KFL1 111917Z 15006KT 06/M02 A3024 RMK A01 T00581020  RH  057%=      5-min Rain = 0
KFL1 111918Z 14006KT 06/M02 A3024 RMK A01 T00581024  RH  056%=      5-min Rain = 0
KFL1 111919Z 14005KT 06/M03 A3024 RMK A01 T00571028  RH  055%=      5-min Rain = 0
KFL1 111920Z 13006KT 06/M03 A3024 RMK A01 T00561029  RH  055%=      5-min Rain = 0
KFL1 111921Z 13003KT 06/M03 A3024 RMK A01 T00551028  RH  055%=      5-min Rain = 0
KFL1 111922Z 14005KT 05/M03 A3024 RMK A01 T00531026  RH  057%=      5-min Rain = 0
KFL1 111923Z 14006KT 06/M02 A3024 RMK A01 T00551021  RH  058%=      5-min Rain = 0
KFL1 111924Z 13006KT 06/M02 A3024 RMK A01 T00571024  RH  056%=      5-min Rain = 0
KFL1 111925Z 14005KT 06/M03 A3024 RMK A01 T00561029  RH  054%=      5-min Rain = 0
KFL1 111926Z 14004KT 06/M03 A3024 RMK A01 T00551030  RH  054%=      5-min Rain = 0
KFL1 111927Z 13004KT 06/M03 A3023 RMK A01 T00561031  RH  053%=      5-min Rain = 0
KFL1 111928Z 14003KT 06/M03 A3023 RMK A01 T00561034  RH  052%=      5-min Rain = 0
KFL1 111929Z 14003KT 06/M03 A3023 RMK A01 T00561034  RH  052%=      5-min Rain = 0
KFL1 111930Z 15005KT 06/M03 A3023 RMK A01 T00561033  RH  053%=      5-min Rain = 0
KFL1 111931Z 15006KT 06/M03 A3023 RMK A01 T00551033  RH  053%=      5-min Rain = 0
KFL1 111932Z 16007KT 06/M04 A3023 RMK A01 T00561035  RH  052%=      5-min Rain = 0
KFL1 111933Z 16005KT 06/M03 A3023 RMK A01 T00561034  RH  052%=      5-min Rain = 0
KFL1 111934Z 17008KT 06/M03 A3023 RMK A01 T00601032  RH  052%=      5-min Rain = 0
KFL1 111935Z 15010KT 06/M04 A3023 RMK A01 T00581035  RH  051%=      5-min Rain = 0
KFL1 111936Z 14009KT 06/M03 A3023 RMK A01 T00591034  RH  051%=      5-min Rain = 0
KFL1 111937Z 12006KT 06/M04 A3023 RMK A01 T00591035  RH  051%=      5-min Rain = 0
KFL1 111938Z 13005KT 06/M04 A3023 RMK A01 T00581036  RH  051%=      5-min Rain = 0
KFL1 111939Z 11005KT 06/M04 A3023 RMK A01 T00591037  RH  050%=      5-min Rain = 0
KFL1 111940Z 09006KT 06/M04 A3023 RMK A01 T00601036  RH  050%=      5-min Rain = 0
KFL1 111941Z 12010KT 06/M03 A3023 RMK A01 T00621032  RH  051%=      5-min Rain = 0
KFL1 111942Z 12008KT 06/M03 A3023 RMK A01 T00631034  RH  050%=      5-min Rain = 0
KFL1 111943Z 13007KT 06/M04 A3023 RMK A01 T00621037  RH  049%=      5-min Rain = 0
KFL1 111944Z 11008KT 06/M04 A3023 RMK A01 T00611035  RH  050%=      5-min Rain = 0
KFL1 111945Z 13006KT 06/M04 A3023 RMK A01 T00621037  RH  049%=      5-min Rain = 0
KFL1 111946Z 16007KT 06/M03 A3023 RMK A01 T00621033  RH  051%=      5-min Rain = 0
KFL1 111947Z 17008KT 06/M03 A3023 RMK A01 T00611030  RH  052%=      5-min Rain = 0
KFL1 111948Z 18006KT 06/M03 A3023 RMK A01 T00601028  RH  053%=      5-min Rain = 0
KFL1 111949Z 18006KT 06/M03 A3023 RMK A01 T00601027  RH  054%=      5-min Rain = 0
KFL1 111950Z 18005KT 06/M03 A3023 RMK A01 T00601029  RH  053%=      5-min Rain = 0
KFL1 111951Z 20007KT 06/M02 A3023 RMK A01 T00611024  RH  055%=      5-min Rain = 0
KFL1 111952Z 19009KT 06/M02 A3023 RMK A01 T00591021  RH  056%=      5-min Rain = 0
KFL1 111953Z 19008KT 06/M02 A3023 RMK A01 T00571021  RH  057%=      5-min Rain = 0
KFL1 111954Z 20008KT 06/M02 A3023 RMK A01 T00561020  RH  058%=      5-min Rain = 0
KFL1 111955Z 19008KT 06/M02 A3023 RMK A01 T00561019  RH  058%=      5-min Rain = 0
KFL1 111956Z 18007KT 06/M02 A3023 RMK A01 T00581019  RH  058%=      5-min Rain = 0
KFL1 111957Z 19005KT 06/M02 A3023 RMK A01 T00571019  RH  058%=      5-min Rain = 0
KFL1 111958Z 18006KT 06/M02 A3023 RMK A01 T00581018  RH  058%=      5-min Rain = 0
KFL1 111959Z 18009KT 06/M02 A3023 RMK A01 T00571020  RH  057%=      5-min Rain = 0
KFL1 112000Z 18009KT 06/M02 A3023 RMK A01 T00561021  RH  058%=      5-min Rain = 0
KFL1 112001Z 16007KT 05/M02 A3023 RMK A01 T00541022  RH  058%=      5-min Rain = 0
KFL1 112002Z 16009KT 05/M02 A3023 RMK A01 T00541021  RH  059%=      5-min Rain = 0
KFL1 112003Z 16008KT 05/M02 A3023 RMK A01 T00531021  RH  059%=      5-min Rain = 0
KFL1 112004Z 16009KT 05/M02 A3023 RMK A01 T00501022  RH  059%=      5-min Rain = 0
KFL1 112005Z 17008KT 05/M02 A3023 RMK A01 T00521020  RH  060%=      5-min Rain = 0
KFL1 112006Z 18009KT 05/M02 A3023 RMK A01 T00491021  RH  060%=      5-min Rain = 0
KFL1 112007Z 17007KT 05/M02 A3023 RMK A01 T00481022  RH  061%=      5-min Rain = 0
KFL1 112008Z 17008KT 05/M02 A3023 RMK A01 T00481020  RH  061%=      5-min Rain = 0
KFL1 112009Z 17007KT 05/M02 A3023 RMK A01 T00481020  RH  061%=      5-min Rain = 0
KFL1 112010Z 17006KT 05/M02 A3023 RMK A01 T00491020  RH  061%=      5-min Rain = 0
KFL1 112011Z 16007KT 05/M02 A3023 RMK A01 T00491020  RH  061%=      5-min Rain = 0
KFL1 112012Z 15008KT 05/M02 A3023 RMK A01 T00481019  RH  062%=      5-min Rain = 0
KFL1 112013Z 17007KT 05/M02 A3023 RMK A01 T00491017  RH  063%=      5-min Rain = 0
KFL1 112014Z 17007KT 05/M02 A3023 RMK A01 T00491015  RH  063%=      5-min Rain = 0
KFL1 112015Z 17008KT 05/M02 A3023 RMK A01 T00491016  RH  063%=      5-min Rain = 0
KFL1 112016Z 18009KT 05/M02 A3023 RMK A01 T00481017  RH  063%=      5-min Rain = 0
KFL1 112017Z 17010KT 05/M02 A3023 RMK A01 T00501016  RH  063%=      5-min Rain = 0
KFL1 112018Z 16008KT 05/M02 A3023 RMK A01 T00501016  RH  062%=      5-min Rain = 0
KFL1 112019Z 15008KT 05/M01 A3023 RMK A01 T00501014  RH  063%=      5-min Rain = 0
KFL1 112020Z 16009KT 05/M01 A3023 RMK A01 T00511013  RH  063%=      5-min Rain = 0
KFL1 112021Z 16006KT 05/M01 A3023 RMK A01 T00511013  RH  063%=      5-min Rain = 0
KFL1 112022Z 17005KT 05/M01 A3023 RMK A01 T00511014  RH  063%=      5-min Rain = 0
KFL1 112023Z 16004KT 05/M01 A3023 RMK A01 T00531012  RH  063%=      5-min Rain = 0
KFL1 112024Z 16004KT 05/M01 A3023 RMK A01 T00531012  RH  063%=      5-min Rain = 0
KFL1 112025Z 15007KT 05/M01 A3023 RMK A01 T00531013  RH  062%=      5-min Rain = 0
KFL1 112026Z 16007KT 05/M01 A3023 RMK A01 T00521012  RH  064%=      5-min Rain = 0
KFL1 112027Z 18005KT 05/M01 A3023 RMK A01 T00511013  RH  064%=      5-min Rain = 0
KFL1 112028Z 16008KT 05/M01 A3023 RMK A01 T00501012  RH  064%=      5-min Rain = 0
KFL1 112029Z 16007KT 05/M01 A3023 RMK A01 T00501011  RH  065%=      5-min Rain = 0
KFL1 112030Z 15008KT 05/M01 A3023 RMK A01 T00501011  RH  065%=      5-min Rain = 0
KFL1 112031Z 13008KT 05/M01 A3023 RMK A01 T00501014  RH  063%=      5-min Rain = 0
KFL1 112032Z 15005KT 05/M01 A3023 RMK A01 T00491013  RH  064%=      5-min Rain = 0
KFL1 112033Z 17007KT 05/M01 A3023 RMK A01 T00501012  RH  064%=      5-min Rain = 0
KFL1 112034Z 16006KT 05/M02 A3023 RMK A01 T00501015  RH  063%=      5-min Rain = 0
KFL1 112035Z 16007KT 05/M02 A3023 RMK A01 T00501015  RH  063%=      5-min Rain = 0
KFL1 112036Z 15007KT 05/M02 A3023 RMK A01 T00501016  RH  062%=      5-min Rain = 0
KFL1 112037Z 15007KT 05/M02 A3023 RMK A01 T00501015  RH  063%=      5-min Rain = 0
KFL1 112038Z 15004KT 05/M01 A3023 RMK A01 T00511014  RH  063%=      5-min Rain = 0
KFL1 112039Z 15007KT 05/M01 A3023 RMK A01 T00521013  RH  063%=      5-min Rain = 0
KFL1 112040Z 16007KT 05/M01 A3023 RMK A01 T00511014  RH  063%=      5-min Rain = 0
KFL1 112041Z 16006KT 05/M01 A3023 RMK A01 T00511014  RH  063%=      5-min Rain = 0
KFL1 112042Z 16007KT 05/M01 A3023 RMK A01 T00531011  RH  063%=      5-min Rain = 0
KFL1 112043Z 17008KT 05/M01 A3023 RMK A01 T00521012  RH  063%=      5-min Rain = 0
KFL1 112044Z 16006KT 05/M01 A3023 RMK A01 T00521011  RH  064%=      5-min Rain = 0
KFL1 112045Z 12006KT 05/M01 A3023 RMK A01 T00531010  RH  064%=      5-min Rain = 0
KFL1 112046Z 12006KT 05/M01 A3023 RMK A01 T00521012  RH  063%=      5-min Rain = 0
KFL1 112047Z 15005KT 05/M01 A3023 RMK A01 T00531008  RH  064%=      5-min Rain = 0
KFL1 112048Z 16005KT 05/M01 A3023 RMK A01 T00541009  RH  064%=      5-min Rain = 0
KFL1 112049Z 15006KT 05/M01 A3023 RMK A01 T00531009  RH  064%=      5-min Rain = 0
KFL1 112050Z 16006KT 05/M01 A3023 RMK A01 T00511009  RH  065%=      5-min Rain = 0
KFL1 112051Z 16008KT 05/M01 A3023 RMK A01 T00511008  RH  065%=      5-min Rain = 0
KFL1 112052Z 15005KT 05/M01 A3023 RMK A01 T00521008  RH  065%=      5-min Rain = 0
KFL1 112053Z 13004KT 05/M01 A3023 RMK A01 T00501009  RH  065%=      5-min Rain = 0
KFL1 112054Z 14005KT 05/M01 A3023 RMK A01 T00501009  RH  065%=      5-min Rain = 0
KFL1 112055Z 13005KT 05/M01 A3023 RMK A01 T00511012  RH  064%=      5-min Rain = 0
KFL1 112056Z 12007KT 05/M01 A3023 RMK A01 T00521014  RH  062%=      5-min Rain = 0
KFL1 112057Z 10007KT 05/M01 A3023 RMK A01 T00531013  RH  062%=      5-min Rain = 0
KFL1 112058Z 12005KT 05/M01 A3023 RMK A01 T00541012  RH  063%=      5-min Rain = 0
KFL1 112059Z 14006KT 05/M01 A3023 RMK A01 T00541011  RH  063%=      5-min Rain = 0
KFL1 112100Z 13008KT 05/M01 A3023 RMK A01 T00531014  RH  062%=      5-min Rain = 0
KFL1 112101Z 13007KT 05/M01 A3023 RMK A01 T00531013  RH  063%=      5-min Rain = 0
KFL1 112102Z 14006KT 05/M01 A3023 RMK A01 T00531011  RH  063%=      5-min Rain = 0
KFL1 112103Z 16008KT 05/M01 A3023 RMK A01 T00521010  RH  064%=      5-min Rain = 0
KFL1 112104Z 14006KT 05/M01 A3023 RMK A01 T00511010  RH  065%=      5-min Rain = 0
KFL1 112105Z 15009KT 05/M01 A3023 RMK A01 T00501011  RH  065%=      5-min Rain = 0
KFL1 112106Z 15005KT 05/M01 A3023 RMK A01 T00501012  RH  064%=      5-min Rain = 0
KFL1 112107Z 16008KT 05/M01 A3023 RMK A01 T00501010  RH  065%=      5-min Rain = 0
KFL1 112108Z 16009KT 05/M01 A3023 RMK A01 T00511013  RH  064%=      5-min Rain = 0
KFL1 112109Z 15010KT 05/M02 A3023 RMK A01 T00511015  RH  062%=      5-min Rain = 0
KFL1 112110Z 15009KT 05/M02 A3023 RMK A01 T00521016  RH  061%=      5-min Rain = 0
KFL1 112111Z 15009KT 05/M02 A3023 RMK A01 T00511019  RH  061%=      5-min Rain = 0
KFL1 112112Z 15009KT 05/M02 A3023 RMK A01 T00511020  RH  060%=      5-min Rain = 0
KFL1 112113Z 15007KT 05/M02 A3023 RMK A01 T00511021  RH  060%=      5-min Rain = 0
KFL1 112114Z 15006KT 05/M02 A3023 RMK A01 T00511021  RH  060%=      5-min Rain = 0
KFL1 112115Z 14007KT 05/M02 A3023 RMK A01 T00511021  RH  060%=      5-min Rain = 0
KFL1 112116Z 14007KT 05/M02 A3023 RMK A01 T00511019  RH  061%=      5-min Rain = 0
KFL1 112117Z 13007KT 05/M02 A3023 RMK A01 T00511019  RH  061%=      5-min Rain = 0
KFL1 112118Z 12008KT 05/M02 A3023 RMK A01 T00521021  RH  059%=      5-min Rain = 0
KFL1 112119Z 12007KT 05/M02 A3023 RMK A01 T00511023  RH  059%=      5-min Rain = 0
KFL1 112120Z 12004KT 05/M02 A3023 RMK A01 T00521023  RH  058%=      5-min Rain = 0
KFL1 112121Z 11006KT 05/M02 A3023 RMK A01 T00541018  RH  060%=      5-min Rain = 0
KFL1 112122Z 12007KT 05/M02 A3023 RMK A01 T00541019  RH  059%=      5-min Rain = 0
KFL1 112123Z 14009KT 06/M02 A3023 RMK A01 T00571019  RH  058%=      5-min Rain = 0
KFL1 112124Z 14009KT 05/M02 A3023 RMK A01 T00541023  RH  057%=      5-min Rain = 0
KFL1 112125Z 15007KT 05/M02 A3023 RMK A01 T00531024  RH  058%=      5-min Rain = 0
KFL1 112126Z 14005KT 05/M02 A3023 RMK A01 T00521022  RH  059%=      5-min Rain = 0
KFL1 112127Z 14005KT 05/M02 A3023 RMK A01 T00531022  RH  059%=      5-min Rain = 0
KFL1 112128Z 15006KT 05/M02 A3023 RMK A01 T00531021  RH  059%=      5-min Rain = 0
KFL1 112129Z 14005KT 05/M02 A3023 RMK A01 T00511023  RH  059%=      5-min Rain = 0
KFL1 112130Z 13006KT 05/M02 A3023 RMK A01 T00511024  RH  059%=      5-min Rain = 0
KFL1 112131Z 13006KT 05/M02 A3023 RMK A01 T00511022  RH  059%=      5-min Rain = 0
KFL1 112132Z 13008KT 05/M02 A3023 RMK A01 T00531021  RH  059%=      5-min Rain = 0
KFL1 112133Z 13006KT 05/M02 A3023 RMK A01 T00531021  RH  059%=      5-min Rain = 0
KFL1 112134Z 15007KT 05/M02 A3023 RMK A01 T00531022  RH  059%=      5-min Rain = 0
KFL1 112135Z 14006KT 05/M02 A3023 RMK A01 T00541023  RH  058%=      5-min Rain = 0
KFL1 112136Z 13007KT 05/M02 A3023 RMK A01 T00531023  RH  058%=      5-min Rain = 0
KFL1 112137Z 12006KT 05/M02 A3023 RMK A01 T00541022  RH  058%=      5-min Rain = 0
KFL1 112138Z 12005KT 05/M02 A3023 RMK A01 T00541022  RH  058%=      5-min Rain = 0
KFL1 112139Z 12004KT 05/M02 A3023 RMK A01 T00531023  RH  058%=      5-min Rain = 0
KFL1 112140Z 12008KT 05/M02 A3023 RMK A01 T00541021  RH  058%=      5-min Rain = 0
KFL1 112141Z 12005KT 05/M02 A3023 RMK A01 T00521021  RH  059%=      5-min Rain = 0
KFL1 112142Z 13007KT 05/M02 A3023 RMK A01 T00511021  RH  060%=      5-min Rain = 0
KFL1 112143Z 12008KT 05/M02 A3023 RMK A01 T00511021  RH  060%=      5-min Rain = 0
KFL1 112144Z 10006KT 05/M02 A3023 RMK A01 T00501021  RH  060%=      5-min Rain = 0
KFL1 112145Z 11006KT 05/M02 A3023 RMK A01 T00531017  RH  060%=      5-min Rain = 0
KFL1 112146Z 11007KT 06/M02 A3023 RMK A01 T00551017  RH  060%=      5-min Rain = 0
KFL1 112147Z 11006KT 06/M02 A3023 RMK A01 T00561015  RH  060%=      5-min Rain = 0
KFL1 112148Z 12006KT 06/M01 A3023 RMK A01 T00581012  RH  060%=      5-min Rain = 0
KFL1 112149Z 12006KT 06/M01 A3023 RMK A01 T00581014  RH  060%=      5-min Rain = 0
KFL1 112150Z 14005KT 06/M02 A3023 RMK A01 T00581015  RH  059%=      5-min Rain = 0
KFL1 112151Z 11005KT 06/M02 A3023 RMK A01 T00561015  RH  060%=      5-min Rain = 0
KFL1 112152Z 10006KT 06/M01 A3023 RMK A01 T00551014  RH  061%=      5-min Rain = 0
KFL1 112153Z 09006KT 06/M01 A3023 RMK A01 T00561014  RH  060%=      5-min Rain = 0
KFL1 112154Z 09006KT 06/M02 A3024 RMK A01 T00581015  RH  059%=      5-min Rain = 0
KFL1 112155Z 10004KT 06/M01 A3024 RMK A01 T00591014  RH  059%=      5-min Rain = 0
KFL1 112156Z 11004KT 06/M02 A3024 RMK A01 T00581017  RH  059%=      5-min Rain = 0
KFL1 112157Z 10004KT 06/M02 A3024 RMK A01 T00561016  RH  060%=      5-min Rain = 0
KFL1 112158Z 11005KT 06/M01 A3024 RMK A01 T00571014  RH  060%=      5-min Rain = 0
KFL1 112159Z 11007KT 06/M02 A3024 RMK A01 T00561016  RH  060%=      5-min Rain = 0
KFL1 112200Z 10006KT 06/M02 A3024 RMK A01 T00551016  RH  060%=      5-min Rain = 0
KFL1 112201Z 08006KT 05/M02 A3024 RMK A01 T00521016  RH  061%=      5-min Rain = 0
KFL1 112202Z 08003KT 05/M02 A3024 RMK A01 T00531016  RH  061%=      5-min Rain = 0
KFL1 112203Z 09003KT 05/M02 A3024 RMK A01 T00521019  RH  060%=      5-min Rain = 0
KFL1 112204Z 09003KT 05/M02 A3024 RMK A01 T00511018  RH  061%=      5-min Rain = 0
KFL1 112205Z 11005KT 05/M02 A3024 RMK A01 T00501016  RH  062%=      5-min Rain = 0
KFL1 112206Z 14005KT 05/M01 A3024 RMK A01 T00511014  RH  063%=      5-min Rain = 0
KFL1 112207Z 14005KT 05/M01 A3024 RMK A01 T00511013  RH  063%=      5-min Rain = 0
KFL1 112208Z 14004KT 05/M01 A3024 RMK A01 T00511011  RH  064%=      5-min Rain = 0
KFL1 112209Z 14005KT 05/M01 A3024 RMK A01 T00501012  RH  064%=      5-min Rain = 0
KFL1 112210Z 15007KT 05/M01 A3024 RMK A01 T00511011  RH  064%=      5-min Rain = 0
KFL1 112211Z 15005KT 05/M01 A3024 RMK A01 T00501014  RH  063%=      5-min Rain = 0
KFL1 112212Z 14004KT 05/M01 A3024 RMK A01 T00501014  RH  063%=      5-min Rain = 0
KFL1 112213Z 14003KT 05/M01 A3024 RMK A01 T00501012  RH  064%=      5-min Rain = 0
KFL1 112214Z 13006KT 05/M01 A3024 RMK A01 T00501012  RH  064%=      5-min Rain = 0
KFL1 112215Z 13006KT 05/M02 A3024 RMK A01 T00511015  RH  063%=      5-min Rain = 0
KFL1 112216Z 13006KT 05/M02 A3024 RMK A01 T00501016  RH  062%=      5-min Rain = 0
KFL1 112217Z 13007KT 05/M02 A3024 RMK A01 T00501016  RH  063%=      5-min Rain = 0
KFL1 112218Z 12005KT 05/M02 A3024 RMK A01 T00481017  RH  063%=      5-min Rain = 0
KFL1 112219Z 13006KT 05/M02 A3024 RMK A01 T00481016  RH  063%=      5-min Rain = 0
KFL1 112220Z 13007KT 05/M02 A3024 RMK A01 T00481015  RH  064%=      5-min Rain = 0
KFL1 112221Z 13006KT 05/M02 A3024 RMK A01 T00481015  RH  064%=      5-min Rain = 0
KFL1 112222Z 13006KT 05/M02 A3024 RMK A01 T00481015  RH  064%=      5-min Rain = 0
KFL1 112223Z 14005KT 05/M02 A3024 RMK A01 T00481015  RH  064%=      5-min Rain = 0
KFL1 112224Z 13005KT 05/M02 A3024 RMK A01 T00481015  RH  064%=      5-min Rain = 0
KFL1 112225Z 14006KT 05/M01 A3024 RMK A01 T00491014  RH  064%=      5-min Rain = 0
KFL1 112226Z 14006KT 05/M02 A3024 RMK A01 T00491015  RH  064%=      5-min Rain = 0
KFL1 112227Z 14004KT 05/M02 A3024 RMK A01 T00491015  RH  063%=      5-min Rain = 0
KFL1 112228Z 14006KT 05/M01 A3024 RMK A01 T00501014  RH  063%=      5-min Rain = 0
KFL1 112229Z 13008KT 05/M02 A3024 RMK A01 T00481016  RH  063%=      5-min Rain = 0
KFL1 112230Z 12007KT 05/M02 A3024 RMK A01 T00471015  RH  064%=      5-min Rain = 0
KFL1 112231Z 11008KT 05/M02 A3024 RMK A01 T00481015  RH  064%=      5-min Rain = 0
KFL1 112232Z 09007KT 05/M01 A3024 RMK A01 T00481013  RH  065%=      5-min Rain = 0
KFL1 112233Z 11006KT 05/M01 A3024 RMK A01 T00471013  RH  065%=      5-min Rain = 0
KFL1 112234Z 12007KT 05/M01 A3024 RMK A01 T00481013  RH  065%=      5-min Rain = 0
KFL1 112235Z 13007KT 05/M01 A3024 RMK A01 T00481013  RH  065%=      5-min Rain = 0
KFL1 112236Z 14006KT 05/M01 A3024 RMK A01 T00491013  RH  064%=      5-min Rain = 0
KFL1 112237Z 13007KT 05/M02 A3024 RMK A01 T00471015  RH  064%=      5-min Rain = 0
KFL1 112238Z 12007KT 05/M01 A3024 RMK A01 T00461014  RH  065%=      5-min Rain = 0
KFL1 112239Z 12008KT 05/M01 A3024 RMK A01 T00451012  RH  066%=      5-min Rain = 0
KFL1 112240Z 12009KT 05/M01 A3024 RMK A01 T00461011  RH  067%=      5-min Rain = 0
KFL1 112241Z 13008KT 05/M01 A3024 RMK A01 T00451010  RH  067%=      5-min Rain = 0
KFL1 112242Z 13008KT 04/M01 A3024 RMK A01 T00441011  RH  067%=      5-min Rain = 0
KFL1 112243Z 13007KT 04/M01 A3024 RMK A01 T00431011  RH  068%=      5-min Rain = 0
KFL1 112244Z 13008KT 04/M01 A3025 RMK A01 T00421010  RH  069%=      5-min Rain = 0
KFL1 112245Z 13007KT 04/M01 A3025 RMK A01 T00411010  RH  069%=      5-min Rain = 0
KFL1 112246Z 13007KT 04/M01 A3025 RMK A01 T00411009  RH  070%=      5-min Rain = 0
KFL1 112247Z 14008KT 04/M01 A3025 RMK A01 T00411009  RH  070%=      5-min Rain = 0
KFL1 112248Z 14008KT 04/M01 A3025 RMK A01 T00411008  RH  071%=      5-min Rain = 0
KFL1 112249Z 15006KT 04/M01 A3025 RMK A01 T00401009  RH  070%=      5-min Rain = 0
KFL1 112250Z 15007KT 04/M01 A3024 RMK A01 T00401007  RH  071%=      5-min Rain = 0
KFL1 112251Z 14007KT 04/M01 A3025 RMK A01 T00411007  RH  071%=      5-min Rain = 0
KFL1 112252Z 14007KT 04/M01 A3025 RMK A01 T00411007  RH  071%=      5-min Rain = 0
KFL1 112253Z 13007KT 04/M01 A3025 RMK A01 T00431008  RH  070%=      5-min Rain = 0
KFL1 112254Z 14007KT 04/M01 A3025 RMK A01 T00431008  RH  070%=      5-min Rain = 0
KFL1 112255Z 13007KT 04/M01 A3025 RMK A01 T00421008  RH  070%=      5-min Rain = 0
KFL1 112256Z 15005KT 04/M01 A3025 RMK A01 T00411007  RH  071%=      5-min Rain = 0
KFL1 112257Z 14005KT 04/M01 A3025 RMK A01 T00421007  RH  070%=      5-min Rain = 0
KFL1 112258Z 15005KT 04/M01 A3025 RMK A01 T00421007  RH  071%=      5-min Rain = 0
KFL1 112259Z 15005KT 04/M01 A3025 RMK A01 T00411009  RH  070%=      5-min Rain = 0
KFL1 112300Z 15006KT 04/M01 A3025 RMK A01 T00411009  RH  070%=      5-min Rain = 0
KFL1 112301Z 14008KT 04/M01 A3025 RMK A01 T00411008  RH  070%=      5-min Rain = 0
KFL1 112302Z 14008KT 04/M01 A3025 RMK A01 T00421006  RH  071%=      5-min Rain = 0
KFL1 112303Z 14007KT 04/M01 A3025 RMK A01 T00431006  RH  070%=      5-min Rain = 0
KFL1 112304Z 14006KT 04/M01 A3025 RMK A01 T00431007  RH  070%=      5-min Rain = 0
KFL1 112305Z 14006KT 04/M01 A3025 RMK A01 T00431007  RH  070%=      5-min Rain = 0
KFL1 112306Z 13005KT 04/M01 A3025 RMK A01 T00431008  RH  069%=      5-min Rain = 0
KFL1 112307Z 14006KT 04/M01 A3025 RMK A01 T00431009  RH  069%=      5-min Rain = 0
KFL1 112308Z 13005KT 04/M01 A3025 RMK A01 T00421010  RH  069%=      5-min Rain = 0
KFL1 112309Z 13006KT 04/M01 A3025 RMK A01 T00431009  RH  069%=      5-min Rain = 0
KFL1 112310Z 13005KT 04/M01 A3025 RMK A01 T00431009  RH  069%=      5-min Rain = 0
KFL1 112311Z 12006KT 04/M01 A3025 RMK A01 T00431010  RH  069%=      5-min Rain = 0
KFL1 112312Z 14005KT 04/M01 A3025 RMK A01 T00431010  RH  068%=      5-min Rain = 0
KFL1 112313Z 14005KT 04/M01 A3025 RMK A01 T00431010  RH  068%=      5-min Rain = 0
KFL1 112314Z 14004KT 04/M01 A3025 RMK A01 T00421012  RH  068%=      5-min Rain = 0
KFL1 112315Z 14006KT 04/M01 A3025 RMK A01 T00421010  RH  069%=      5-min Rain = 0
KFL1 112316Z 14006KT 04/M01 A3025 RMK A01 T00431008  RH  069%=      5-min Rain = 0
KFL1 112317Z 14006KT 04/M01 A3025 RMK A01 T00441008  RH  069%=      5-min Rain = 0
KFL1 112318Z 15007KT 04/M01 A3025 RMK A01 T00441008  RH  069%=      5-min Rain = 0
KFL1 112319Z 14005KT 05/M01 A3025 RMK A01 T00451008  RH  068%=      5-min Rain = 0
KFL1 112320Z 15006KT 05/M01 A3025 RMK A01 T00451008  RH  068%=      5-min Rain = 0
KFL1 112321Z 16006KT 04/M01 A3025 RMK A01 T00441010  RH  068%=      5-min Rain = 0
KFL1 112322Z 14007KT 04/M01 A3025 RMK A01 T00441009  RH  069%=      5-min Rain = 0
KFL1 112323Z 14007KT 04/M01 A3025 RMK A01 T00431009  RH  069%=      5-min Rain = 0
KFL1 112324Z 13006KT 04/M01 A3025 RMK A01 T00441008  RH  069%=      5-min Rain = 0
KFL1 112325Z 14006KT 04/M01 A3025 RMK A01 T00441010  RH  068%=      5-min Rain = 0
KFL1 112326Z 16005KT 05/M01 A3025 RMK A01 T00451009  RH  068%=      5-min Rain = 0
KFL1 112327Z 16004KT 05/M01 A3025 RMK A01 T00451010  RH  068%=      5-min Rain = 0
KFL1 112328Z 15005KT 04/M01 A3025 RMK A01 T00441010  RH  067%=      5-min Rain = 0
KFL1 112329Z 15006KT 04/M01 A3025 RMK A01 T00441012  RH  067%=      5-min Rain = 0
KFL1 112330Z 15008KT 05/M01 A3025 RMK A01 T00451012  RH  066%=      5-min Rain = 0
KFL1 112331Z 15006KT 05/M01 A3025 RMK A01 T00461012  RH  066%=      5-min Rain = 0
KFL1 112332Z 16007KT 05/M01 A3025 RMK A01 T00461013  RH  066%=      5-min Rain = 0
KFL1 112333Z 14005KT 04/M01 A3025 RMK A01 T00441014  RH  066%=      5-min Rain = 0
KFL1 112334Z 14004KT 05/M01 A3025 RMK A01 T00451012  RH  067%=      5-min Rain = 0
KFL1 112335Z 13005KT 05/M01 A3025 RMK A01 T00461010  RH  067%=      5-min Rain = 0
KFL1 112336Z 14005KT 05/M01 A3025 RMK A01 T00451014  RH  066%=      5-min Rain = 0
KFL1 112337Z 13006KT 05/M01 A3025 RMK A01 T00451013  RH  066%=      5-min Rain = 0
KFL1 112338Z 13005KT 05/M01 A3025 RMK A01 T00451013  RH  066%=      5-min Rain = 0
KFL1 112339Z 15004KT 05/M01 A3025 RMK A01 T00461009  RH  067%=      5-min Rain = 0
KFL1 112340Z 17007KT 05/M00 A3025 RMK A01 T00461004  RH  070%=      5-min Rain = 0
KFL1 112341Z 17006KT 05/00 A3025 RMK A01 T004700-0  RH  071%=      5-min Rain = 0
KFL1 112342Z 19007KT 05/00 A3025 RMK A01 T00450000  RH  073%=      5-min Rain = 0
KFL1 112343Z 19009KT 05/00 A3025 RMK A01 T00460004  RH  074%=      5-min Rain = 0
KFL1 112344Z 19008KT 05/01 A3025 RMK A01 T00450005  RH  075%=      5-min Rain = 0
KFL1 112345Z 18007KT 04/01 A3025 RMK A01 T00440005  RH  076%=      5-min Rain = 0
KFL1 112346Z 16006KT 04/01 A3026 RMK A01 T00440006  RH  077%=      5-min Rain = 0
KFL1 112347Z 16006KT 04/01 A3026 RMK A01 T00430006  RH  077%=      5-min Rain = 0
KFL1 112348Z 17005KT 04/01 A3026 RMK A01 T00430007  RH  077%=      5-min Rain = 0
KFL1 112349Z 17005KT 04/01 A3026 RMK A01 T00440007  RH  077%=      5-min Rain = 0
KFL1 112350Z 18006KT 05/01 A3026 RMK A01 T00450007  RH  077%=      5-min Rain = 0
KFL1 112351Z 18006KT 04/01 A3026 RMK A01 T00430006  RH  077%=      5-min Rain = 0
KFL1 112352Z 17006KT 04/01 A3026 RMK A01 T00440008  RH  078%=      5-min Rain = 0
KFL1 112353Z 15005KT 04/01 A3026 RMK A01 T00440009  RH  078%=      5-min Rain = 0
KFL1 112354Z 16008KT 04/01 A3026 RMK A01 T00420008  RH  078%=      5-min Rain = 0
KFL1 112355Z 15005KT 04/01 A3026 RMK A01 T00410008  RH  079%=      5-min Rain = 0
KFL1 112356Z 17005KT 04/01 A3026 RMK A01 T00410010  RH  080%=      5-min Rain = 0
KFL1 112357Z 17007KT 04/01 A3026 RMK A01 T00410010  RH  080%=      5-min Rain = 0
KFL1 112358Z 17006KT 04/01 A3026 RMK A01 T00410010  RH  080%=      5-min Rain = 0
KFL1 112359Z 16006KT 04/01 A3026 RMK A01 T00390009  RH  081%=      5-min Rain = 0
KFL1 120000Z 18007KT 04/01 A3026 RMK A01 T00400011  RH  081%=      5-min Rain = 0
KFL1 120001Z 17006KT 04/01 A3026 RMK A01 T00390009  RH  081%=      5-min Rain = 0
KFL1 120002Z 16005KT 04/01 A3026 RMK A01 T00380009  RH  081%=      5-min Rain = 0
KFL1 120003Z 16006KT 04/01 A3026 RMK A01 T00390009  RH  081%=      5-min Rain = 0
KFL1 120004Z 18006KT 04/01 A3026 RMK A01 T00390009  RH  081%=      5-min Rain = 0
KFL1 120005Z 17006KT 04/01 A3026 RMK A01 T00390009  RH  081%=      5-min Rain = 0
KFL1 120006Z 17007KT 04/01 A3026 RMK A01 T00380009  RH  081%=      5-min Rain = 0
KFL1 120007Z 18008KT 04/01 A3026 RMK A01 T00370009  RH  082%=      5-min Rain = 0
KFL1 120008Z 18007KT 04/01 A3026 RMK A01 T00370010  RH  082%=      5-min Rain = 0
KFL1 120009Z 19007KT 04/01 A3026 RMK A01 T00370010  RH  083%=      5-min Rain = 0
KFL1 120010Z 18007KT 04/01 A3026 RMK A01 T00360010  RH  083%=      5-min Rain = 0
KFL1 120011Z 18008KT 04/01 A3026 RMK A01 T00370012  RH  083%=      5-min Rain = 0
KFL1 120012Z 18008KT 04/01 A3026 RMK A01 T00360010  RH  084%=      5-min Rain = 0
KFL1 120013Z 19006KT 04/01 A3026 RMK A01 T00350011  RH  084%=      5-min Rain = 0
KFL1 120014Z 18006KT 04/01 A3026 RMK A01 T00350011  RH  084%=      5-min Rain = 0
KFL1 120015Z 19006KT 04/01 A3026 RMK A01 T00350011  RH  084%=      5-min Rain = 0
KFL1 120016Z 20007KT 04/01 A3026 RMK A01 T00370013  RH  084%=      5-min Rain = 0
KFL1 120017Z 19006KT 04/01 A3026 RMK A01 T00370012  RH  084%=      5-min Rain = 0
KFL1 120018Z 19006KT 04/01 A3026 RMK A01 T00360011  RH  084%=      5-min Rain = 0
KFL1 120019Z 18005KT 04/01 A3026 RMK A01 T00360011  RH  084%=      5-min Rain = 0
KFL1 120020Z 18008KT 03/01 A3026 RMK A01 T00340011  RH  085%=      5-min Rain = 0
KFL1 120021Z 19007KT 04/01 A3026 RMK A01 T00350012  RH  085%=      5-min Rain = 0
KFL1 120022Z 17004KT 03/01 A3026 RMK A01 T00330011  RH  085%=      5-min Rain = 0
KFL1 120023Z 18006KT 03/01 A3026 RMK A01 T00330011  RH  085%=      5-min Rain = 0
KFL1 120024Z 17005KT 03/01 A3026 RMK A01 T00320011  RH  086%=      5-min Rain = 0
KFL1 120025Z 17007KT 03/01 A3027 RMK A01 T00320011  RH  086%=      5-min Rain = 0
KFL1 120026Z 17006KT 03/01 A3027 RMK A01 T00310011  RH  086%=      5-min Rain = 0
KFL1 120027Z 18008KT 03/01 A3027 RMK A01 T00310011  RH  087%=      5-min Rain = 0
KFL1 120028Z 18007KT 03/01 A3027 RMK A01 T00310012  RH  087%=      5-min Rain = 0
KFL1 120029Z 17008KT 03/01 A3027 RMK A01 T00310013  RH  088%=      5-min Rain = 0
KFL1 120030Z 17007KT 03/01 A3027 RMK A01 T00310014  RH  089%=      5-min Rain = 0
KFL1 120031Z 17007KT 03/02 A3027 RMK A01 T00300015  RH  090%=      5-min Rain = 0
KFL1 120032Z 18007KT 03/01 A3027 RMK A01 T00290014  RH  090%=      5-min Rain = 0
KFL1 120033Z 18007KT 03/01 A3027 RMK A01 T00290014  RH  090%=      5-min Rain = 0
KFL1 120034Z 17005KT 03/02 A3027 RMK A01 T00290015  RH  090%=      5-min Rain = 0
KFL1 120035Z 18006KT 03/01 A3027 RMK A01 T00280014  RH  091%=      5-min Rain = 0
KFL1 120036Z 18006KT 03/01 A3027 RMK A01 T00280014  RH  091%=      5-min Rain = 0
KFL1 120037Z 19006KT 03/02 A3027 RMK A01 T00280015  RH  091%=      5-min Rain = 0
KFL1 120038Z 18005KT 03/01 A3027 RMK A01 T00270013  RH  091%=      5-min Rain = 0
KFL1 120039Z 17004KT 03/01 A3027 RMK A01 T00280014  RH  091%=      5-min Rain = 0
KFL1 120040Z 16004KT 03/02 A3027 RMK A01 T00290015  RH  090%=      5-min Rain = 0
KFL1 120041Z 18006KT 03/01 A3027 RMK A01 T00280013  RH  090%=      5-min Rain = 0
KFL1 120042Z 19006KT 03/01 A3027 RMK A01 T00290014  RH  090%=      5-min Rain = 0
KFL1 120043Z 17006KT 03/01 A3028 RMK A01 T00280013  RH  090%=      5-min Rain = 0
KFL1 120044Z 18007KT 03/01 A3028 RMK A01 T00270012  RH  090%=      5-min Rain = 0
KFL1 120045Z 17006KT 03/01 A3028 RMK A01 T00260012  RH  090%=      5-min Rain = 0
KFL1 120046Z 16007KT 03/01 A3028 RMK A01 T00260012  RH  091%=      5-min Rain = 0
KFL1 120047Z 17006KT 03/01 A3028 RMK A01 T00260012  RH  091%=      5-min Rain = 0
KFL1 120048Z 17005KT 03/01 A3028 RMK A01 T00260013  RH  091%=      5-min Rain = 0
KFL1 120049Z 18004KT 03/02 A3028 RMK A01 T00280015  RH  091%=      5-min Rain = 0
KFL1 120050Z 17005KT 03/01 A3028 RMK A01 T00270014  RH  091%=      5-min Rain = 0
KFL1 120051Z 17006KT 03/01 A3028 RMK A01 T00250012  RH  091%=      5-min Rain = 0
KFL1 120052Z 18006KT 03/01 A3028 RMK A01 T00250013  RH  091%=      5-min Rain = 0
KFL1 120053Z 17006KT 03/01 A3028 RMK A01 T00250013  RH  091%=      5-min Rain = 0
KFL1 120054Z 18006KT 03/01 A3028 RMK A01 T00250013  RH  092%=      5-min Rain = 0
KFL1 120055Z 18008KT 03/01 A3028 RMK A01 T00260014  RH  092%=      5-min Rain = 0
KFL1 120056Z 18007KT 03/01 A3028 RMK A01 T00250013  RH  092%=      5-min Rain = 0
KFL1 120057Z 17005KT 02/01 A3028 RMK A01 T00240012  RH  092%=      5-min Rain = 0
KFL1 120058Z 18006KT 02/01 A3028 RMK A01 T00240013  RH  092%=      5-min Rain = 0
KFL1 120059Z 18006KT 02/01 A3028 RMK A01 T00240014  RH  093%=      5-min Rain = 0
KFL1 120100Z 18006KT 02/01 A3028 RMK A01 T00230012  RH  093%=      5-min Rain = 0
KFL1 120101Z 17007KT 02/01 A3028 RMK A01 T00230012  RH  093%=      5-min Rain = 0
KFL1 120102Z 16004KT 02/01 A3029 RMK A01 T00230012  RH  092%=      5-min Rain = 0
KFL1 120103Z 17006KT 02/01 A3029 RMK A01 T00230012  RH  092%=      5-min Rain = 0
KFL1 120104Z 18005KT 02/01 A3029 RMK A01 T00240013  RH  092%=      5-min Rain = 0
KFL1 120105Z 18006KT 02/01 A3029 RMK A01 T00240012  RH  092%=      5-min Rain = 0
KFL1 120106Z 18006KT 02/01 A3029 RMK A01 T00240012  RH  092%=      5-min Rain = 0
KFL1 120107Z 18005KT 02/01 A3029 RMK A01 T00230012  RH  092%=      5-min Rain = 0
KFL1 120108Z 17004KT 02/01 A3029 RMK A01 T00230012  RH  092%=      5-min Rain = 0
KFL1 120109Z 16004KT 02/01 A3029 RMK A01 T00220011  RH  092%=      5-min Rain = 0
KFL1 120110Z 17003KT 02/01 A3029 RMK A01 T00230012  RH  092%=      5-min Rain = 0
KFL1 120111Z 17004KT 02/01 A3029 RMK A01 T00230012  RH  092%=      5-min Rain = 0
KFL1 120112Z 17004KT 02/01 A3029 RMK A01 T00230011  RH  092%=      5-min Rain = 0
KFL1 120113Z 17004KT 02/01 A3029 RMK A01 T00230012  RH  092%=      5-min Rain = 0
KFL1 120114Z 17005KT 02/01 A3029 RMK A01 T00240013  RH  093%=      5-min Rain = 0
KFL1 120115Z 17005KT 02/01 A3029 RMK A01 T00220011  RH  093%=      5-min Rain = 0
KFL1 120116Z 18005KT 02/01 A3029 RMK A01 T00220012  RH  093%=      5-min Rain = 0
KFL1 120117Z 18005KT 02/01 A3029 RMK A01 T00230012  RH  093%=      5-min Rain = 0
KFL1 120118Z 17004KT 02/01 A3029 RMK A01 T00230013  RH  093%=      5-min Rain = 0
KFL1 120119Z 17003KT 02/01 A3029 RMK A01 T00230012  RH  093%=      5-min Rain = 0
KFL1 120120Z 19003KT 02/01 A3029 RMK A01 T00230013  RH  093%=      5-min Rain = 0
KFL1 120121Z 18004KT 02/01 A3029 RMK A01 T00230013  RH  093%=      5-min Rain = 0
KFL1 120122Z 18005KT 02/01 A3029 RMK A01 T00220012  RH  093%=      5-min Rain = 0
KFL1 120123Z 17005KT 02/01 A3029 RMK A01 T00230013  RH  094%=      5-min Rain = 0
KFL1 120124Z 16005KT 02/01 A3029 RMK A01 T00230013  RH  094%=      5-min Rain = 0
KFL1 120125Z 17005KT 02/01 A3029 RMK A01 T00220013  RH  094%=      5-min Rain = 0
KFL1 120126Z 16005KT 02/01 A303 RMK A01 T00210012  RH  094%=      5-min Rain = 0
KFL1 120127Z 18005KT 02/01 A303 RMK A01 T00210012  RH  094%=      5-min Rain = 0
KFL1 120128Z 16004KT 02/01 A303 RMK A01 T00200011  RH  094%=      5-min Rain = 0
KFL1 120129Z 16005KT 02/01 A303 RMK A01 T00220013  RH  094%=      5-min Rain = 0
KFL1 120130Z 16004KT 02/01 A303 RMK A01 T00210011  RH  094%=      5-min Rain = 0
KFL1 120131Z 14004KT 02/01 A303 RMK A01 T00220012  RH  093%=      5-min Rain = 0
KFL1 120132Z 14003KT 02/01 A303 RMK A01 T00210011  RH  093%=      5-min Rain = 0
KFL1 120133Z 14003KT 02/01 A303 RMK A01 T00210012  RH  094%=      5-min Rain = 0
KFL1 120134Z 13002KT 02/01 A303 RMK A01 T00210011  RH  093%=      5-min Rain = 0
KFL1 120135Z 14004KT 02/01 A303 RMK A01 T00200010  RH  093%=      5-min Rain = 0
KFL1 120136Z 14004KT 02/01 A303 RMK A01 T00220012  RH  093%=      5-min Rain = 0
KFL1 120137Z 15005KT 02/01 A303 RMK A01 T00210011  RH  093%=      5-min Rain = 0
KFL1 120138Z 15005KT 02/01 A303 RMK A01 T00220012  RH  093%=      5-min Rain = 0
KFL1 120139Z 15005KT 02/01 A303 RMK A01 T00210010  RH  093%=      5-min Rain = 0
KFL1 120140Z 16004KT 02/01 A303 RMK A01 T00230012  RH  093%=      5-min Rain = 0
KFL1 120141Z 15004KT 02/01 A303 RMK A01 T00220012  RH  093%=      5-min Rain = 0
KFL1 120142Z 15005KT 02/01 A303 RMK A01 T00210010  RH  093%=      5-min Rain = 0
KFL1 120143Z 15005KT 02/01 A303 RMK A01 T00220011  RH  093%=      5-min Rain = 0
KFL1 120144Z 14006KT 02/01 A303 RMK A01 T00220011  RH  093%=      5-min Rain = 0
KFL1 120145Z 14004KT 02/01 A303 RMK A01 T00210011  RH  093%=      5-min Rain = 0
KFL1 120146Z 14005KT 02/01 A303 RMK A01 T00210010  RH  092%=      5-min Rain = 0
KFL1 120147Z 14004KT 02/01 A303 RMK A01 T00210009  RH  092%=      5-min Rain = 0
KFL1 120148Z 14004KT 02/01 A303 RMK A01 T00210010  RH  092%=      5-min Rain = 0
KFL1 120149Z 14004KT 02/01 A303 RMK A01 T00220011  RH  092%=      5-min Rain = 0
KFL1 120150Z 14003KT 02/01 A303 RMK A01 T00210009  RH  092%=      5-min Rain = 0
KFL1 120151Z 14006KT 02/01 A303 RMK A01 T00210009  RH  092%=      5-min Rain = 0
KFL1 120152Z 14004KT 02/01 A303 RMK A01 T00220009  RH  092%=      5-min Rain = 0
KFL1 120153Z 13004KT 02/01 A303 RMK A01 T00220009  RH  091%=      5-min Rain = 0
KFL1 120154Z 13006KT 02/01 A303 RMK A01 T00220008  RH  091%=      5-min Rain = 0
KFL1 120155Z 13007KT 02/01 A303 RMK A01 T00230008  RH  090%=      5-min Rain = 0
KFL1 120156Z 13006KT 02/01 A303 RMK A01 T00210006  RH  090%=      5-min Rain = 0
KFL1 120157Z 13005KT 02/01 A303 RMK A01 T00220006  RH  089%=      5-min Rain = 0
KFL1 120158Z 13004KT 02/01 A303 RMK A01 T00220006  RH  090%=      5-min Rain = 0
KFL1 120159Z 13004KT 02/01 A303 RMK A01 T00210006  RH  089%=      5-min Rain = 0
KFL1 120200Z 13004KT 02/01 A303 RMK A01 T00220006  RH  089%=      5-min Rain = 0
KFL1 120201Z 13004KT 02/01 A303 RMK A01 T00210005  RH  089%=      5-min Rain = 0
KFL1 120202Z 13003KT 02/01 A3031 RMK A01 T00210005  RH  089%=      5-min Rain = 0
KFL1 120203Z 13005KT 02/01 A3031 RMK A01 T00210005  RH  089%=      5-min Rain = 0
KFL1 120204Z 13005KT 02/01 A3031 RMK A01 T00210005  RH  089%=      5-min Rain = 0
KFL1 120205Z 14007KT 02/00 A3031 RMK A01 T00200003  RH  088%=      5-min Rain = 0
KFL1 120206Z 14006KT 02/00 A3031 RMK A01 T00210004  RH  088%=      5-min Rain = 0
KFL1 120207Z 13005KT 02/00 A3031 RMK A01 T00200003  RH  088%=      5-min Rain = 0
KFL1 120208Z 13004KT 02/00 A3031 RMK A01 T00210004  RH  088%=      5-min Rain = 0
KFL1 120209Z 13005KT 02/00 A3031 RMK A01 T00210004  RH  088%=      5-min Rain = 0
KFL1 120210Z 13004KT 02/00 A3031 RMK A01 T00210004  RH  089%=      5-min Rain = 0
KFL1 120211Z 13004KT 02/00 A3031 RMK A01 T00210004  RH  089%=      5-min Rain = 0
KFL1 120212Z 14003KT 02/01 A3031 RMK A01 T00210005  RH  089%=      5-min Rain = 0
KFL1 120213Z 13005KT 02/00 A3031 RMK A01 T00200003  RH  089%=      5-min Rain = 0
KFL1 120214Z 13005KT 02/00 A3031 RMK A01 T00200004  RH  089%=      5-min Rain = 0
KFL1 120215Z 14005KT 02/00 A3031 RMK A01 T00200004  RH  089%=      5-min Rain = 0
KFL1 120216Z 12004KT 02/00 A3031 RMK A01 T00190003  RH  089%=      5-min Rain = 0
KFL1 120217Z 13004KT 02/00 A3031 RMK A01 T00200004  RH  090%=      5-min Rain = 0
KFL1 120218Z 14004KT 02/01 A3031 RMK A01 T00200005  RH  090%=      5-min Rain = 0
KFL1 120219Z 13005KT 02/00 A3031 RMK A01 T00200004  RH  090%=      5-min Rain = 0
KFL1 120220Z 13007KT 02/01 A3031 RMK A01 T00210005  RH  089%=      5-min Rain = 0
KFL1 120221Z 13006KT 02/00 A3032 RMK A01 T00200004  RH  089%=      5-min Rain = 0
KFL1 120222Z 13006KT 02/00 A3032 RMK A01 T00190003  RH  089%=      5-min Rain = 0
KFL1 120223Z 13006KT 02/00 A3032 RMK A01 T00200004  RH  089%=      5-min Rain = 0
KFL1 120224Z 12005KT 02/00 A3032 RMK A01 T00190002  RH  089%=      5-min Rain = 0
KFL1 120225Z 13005KT 02/00 A3032 RMK A01 T00190002  RH  089%=      5-min Rain = 0
KFL1 120226Z 14004KT 02/00 A3032 RMK A01 T00180002  RH  089%=      5-min Rain = 0
KFL1 120227Z 13005KT 02/00 A3032 RMK A01 T00180002  RH  089%=      5-min Rain = 0
KFL1 120228Z 13004KT 02/00 A3032 RMK A01 T00180001  RH  089%=      5-min Rain = 0
KFL1 120229Z 12005KT 02/00 A3032 RMK A01 T00190003  RH  089%=      5-min Rain = 0
KFL1 120230Z 12004KT 02/00 A3032 RMK A01 T00180001  RH  088%=      5-min Rain = 0
KFL1 120231Z 13004KT 02/00 A3032 RMK A01 T00180000  RH  088%=      5-min Rain = 0
KFL1 120232Z 13004KT 02/00 A3032 RMK A01 T00180001  RH  088%=      5-min Rain = 0
KFL1 120233Z 13004KT 02/00 A3032 RMK A01 T00190001  RH  088%=      5-min Rain = 0
KFL1 120234Z 13004KT 02/00 A3032 RMK A01 T00190001  RH  088%=      5-min Rain = 0
KFL1 120235Z 11004KT 02/00 A3032 RMK A01 T00180000  RH  088%=      5-min Rain = 0
KFL1 120236Z 13005KT 02/00 A3032 RMK A01 T00180000  RH  088%=      5-min Rain = 0
KFL1 120237Z 13005KT 02/00 A3032 RMK A01 T001800-0  RH  088%=      5-min Rain = 0
KFL1 120238Z 12006KT 02/00 A3032 RMK A01 T001800-0  RH  088%=      5-min Rain = 0
KFL1 120239Z 12006KT 02/00 A3032 RMK A01 T00190001  RH  087%=      5-min Rain = 0
KFL1 120240Z 12006KT 02/M00 A3032 RMK A01 T00181001  RH  087%=      5-min Rain = 0
KFL1 120241Z 12005KT 02/M00 A3032 RMK A01 T00191001  RH  087%=      5-min Rain = 0
KFL1 120242Z 13006KT 02/00 A3032 RMK A01 T001900-0  RH  087%=      5-min Rain = 0
KFL1 120243Z 12005KT 02/00 A3032 RMK A01 T00190000  RH  087%=      5-min Rain = 0
KFL1 120244Z 12005KT 02/00 A3032 RMK A01 T00190000  RH  087%=      5-min Rain = 0
KFL1 120245Z 12004KT 02/M00 A3032 RMK A01 T00171002  RH  087%=      5-min Rain = 0
KFL1 120246Z 13003KT 02/M00 A3032 RMK A01 T00171002  RH  087%=      5-min Rain = 0
KFL1 120247Z 11004KT 02/M00 A3033 RMK A01 T00171002  RH  087%=      5-min Rain = 0
KFL1 120248Z 11003KT 02/M00 A3033 RMK A01 T00171002  RH  088%=      5-min Rain = 0
KFL1 120249Z 11004KT 02/M00 A3033 RMK A01 T00171001  RH  088%=      5-min Rain = 0
KFL1 120250Z 12003KT 02/M00 A3033 RMK A01 T00171002  RH  088%=      5-min Rain = 0
KFL1 120251Z 11004KT 02/M00 A3033 RMK A01 T00171002  RH  088%=      5-min Rain = 0
KFL1 120252Z 11004KT 02/M00 A3033 RMK A01 T00171001  RH  088%=      5-min Rain = 0
KFL1 120253Z 11005KT 02/M00 A3033 RMK A01 T00151003  RH  088%=      5-min Rain = 0
KFL1 120254Z 10003KT 02/M00 A3033 RMK A01 T00161002  RH  088%=      5-min Rain = 0
KFL1 120255Z 10004KT 02/M00 A3033 RMK A01 T00161001  RH  088%=      5-min Rain = 0
KFL1 120256Z 10003KT 02/M00 A3033 RMK A01 T00161002  RH  088%=      5-min Rain = 0
KFL1 120257Z 09003KT 02/M00 A3033 RMK A01 T00161002  RH  088%=      5-min Rain = 0
KFL1 120258Z 10003KT 02/M00 A3033 RMK A01 T00151003  RH  088%=      5-min Rain = 0
KFL1 120259Z 10003KT 02/M00 A3033 RMK A01 T00161002  RH  088%=      5-min Rain = 0
KFL1 120300Z 10004KT 01/M00 A3033 RMK A01 T00141003  RH  088%=      5-min Rain = 0
KFL1 120301Z 10003KT 01/M00 A3033 RMK A01 T00141003  RH  088%=      5-min Rain = 0
KFL1 120302Z 10003KT 02/M00 A3033 RMK A01 T00151003  RH  088%=      5-min Rain = 0
KFL1 120303Z 10004KT 02/M00 A3033 RMK A01 T00151003  RH  088%=      5-min Rain = 0
KFL1 120304Z 10004KT 01/M00 A3033 RMK A01 T00141003  RH  088%=      5-min Rain = 0
KFL1 120305Z 11003KT 01/M00 A3033 RMK A01 T00141002  RH  089%=      5-min Rain = 0
KFL1 120306Z 11004KT 01/M00 A3033 RMK A01 T00141002  RH  089%=      5-min Rain = 0
KFL1 120307Z 12005KT 01/M00 A3033 RMK A01 T00141002  RH  089%=      5-min Rain = 0
KFL1 120308Z 11003KT 01/M00 A3033 RMK A01 T00141003  RH  089%=      5-min Rain = 0
KFL1 120309Z 11004KT 01/M00 A3033 RMK A01 T00141001  RH  089%=      5-min Rain = 0
KFL1 120310Z 11004KT 01/M00 A3033 RMK A01 T00141002  RH  089%=      5-min Rain = 0
KFL1 120311Z 11006KT 02/00 A3033 RMK A01 T001500-0  RH  090%=      5-min Rain = 0
KFL1 120312Z 11005KT 01/M00 A3033 RMK A01 T00141001  RH  090%=      5-min Rain = 0
KFL1 120313Z 11005KT 01/M00 A3033 RMK A01 T00141001  RH  090%=      5-min Rain = 0
KFL1 120314Z 10004KT 01/00 A3033 RMK A01 T001400-0  RH  090%=      5-min Rain = 0
KFL1 120315Z 10005KT 01/00 A3033 RMK A01 T001400-0  RH  090%=      5-min Rain = 0
KFL1 120316Z 10004KT 01/M00 A3033 RMK A01 T00141001  RH  090%=      5-min Rain = 0
KFL1 120317Z 11003KT 01/M00 A3033 RMK A01 T00141001  RH  090%=      5-min Rain = 0
KFL1 120318Z 11003KT 01/00 A3033 RMK A01 T001400-0  RH  090%=      5-min Rain = 0
KFL1 120319Z 10004KT 01/M00 A3033 RMK A01 T00131001  RH  090%=      5-min Rain = 0
KFL1 120320Z 11003KT 01/M00 A3033 RMK A01 T00131001  RH  090%=      5-min Rain = 0
KFL1 120321Z 10003KT 01/00 A3033 RMK A01 T001400-0  RH  090%=      5-min Rain = 0
KFL1 120322Z 09004KT 01/M00 A3033 RMK A01 T00131001  RH  090%=      5-min Rain = 0
KFL1 120323Z 08003KT 01/M00 A3033 RMK A01 T00141001  RH  090%=      5-min Rain = 0
KFL1 120324Z 08002KT 01/M00 A3033 RMK A01 T00121002  RH  090%=      5-min Rain = 0
KFL1 120325Z 08003KT 01/M00 A3033 RMK A01 T00131001  RH  090%=      5-min Rain = 0
KFL1 120326Z 08002KT 01/M00 A3033 RMK A01 T00131001  RH  090%=      5-min Rain = 0
KFL1 120327Z 08002KT 01/M00 A3033 RMK A01 T00121002  RH  090%=      5-min Rain = 0
KFL1 120328Z 08003KT 01/M00 A3033 RMK A01 T00121002  RH  090%=      5-min Rain = 0
KFL1 120329Z 07002KT 01/M00 A3033 RMK A01 T00131001  RH  090%=      5-min Rain = 0
KFL1 120330Z 08002KT 01/00 A3033 RMK A01 T00140000  RH  090%=      5-min Rain = 0
KFL1 120331Z 08002KT 01/M00 A3033 RMK A01 T00131001  RH  090%=      5-min Rain = 0
KFL1 120332Z 08003KT 01/M00 A3033 RMK A01 T00131001  RH  090%=      5-min Rain = 0
KFL1 120333Z 05002KT 01/M00 A3033 RMK A01 T00131001  RH  090%=      5-min Rain = 0
KFL1 120334Z 05001KT 01/M00 A3033 RMK A01 T00131001  RH  090%=      5-min Rain = 0
KFL1 120335Z 05001KT 01/M00 A3033 RMK A01 T00121002  RH  090%=      5-min Rain = 0
KFL1 120336Z 05000KT 01/M00 A3033 RMK A01 T00121002  RH  090%=      5-min Rain = 0
KFL1 120337Z 09000KT 01/M00 A3033 RMK A01 T00121002  RH  090%=      5-min Rain = 0
KFL1 120338Z 08001KT 01/00 A3033 RMK A01 T001400-0  RH  090%=      5-min Rain = 0
KFL1 120339Z 08001KT 01/M00 A3033 RMK A01 T00121002  RH  090%=      5-min Rain = 0
KFL1 120340Z 09001KT 01/M00 A3033 RMK A01 T00131002  RH  090%=      5-min Rain = 0
KFL1 120341Z 09001KT 01/M00 A3033 RMK A01 T00121002  RH  091%=      5-min Rain = 0
KFL1 120342Z 08001KT 01/M00 A3033 RMK A01 T00121002  RH  091%=      5-min Rain = 0
KFL1 120343Z 09001KT 01/M00 A3033 RMK A01 T00121002  RH  091%=      5-min Rain = 0
KFL1 120344Z 09001KT 01/M00 A3033 RMK A01 T00121001  RH  091%=      5-min Rain = 0
KFL1 120345Z 08001KT 01/M00 A3033 RMK A01 T00111002  RH  091%=      5-min Rain = 0
KFL1 120346Z 07002KT 01/M00 A3033 RMK A01 T00111002  RH  091%=      5-min Rain = 0
KFL1 120347Z 07002KT 01/M00 A3033 RMK A01 T00111002  RH  091%=      5-min Rain = 0
KFL1 120348Z 07002KT 01/M00 A3033 RMK A01 T00101003  RH  091%=      5-min Rain = 0
KFL1 120349Z 07002KT 01/M00 A3033 RMK A01 T00091004  RH  091%=      5-min Rain = 0
KFL1 120350Z 07002KT 01/M00 A3033 RMK A01 T00091004  RH  091%=      5-min Rain = 0
KFL1 120351Z 07002KT 01/M00 A3033 RMK A01 T00091004  RH  091%=      5-min Rain = 0
KFL1 120352Z 06001KT 01/M00 A3033 RMK A01 T00081004  RH  092%=      5-min Rain = 0
KFL1 120353Z 07002KT 01/M00 A3033 RMK A01 T00081004  RH  092%=      5-min Rain = 0
KFL1 120354Z 08002KT 01/M00 A3033 RMK A01 T00081003  RH  092%=      5-min Rain = 0
KFL1 120355Z 08002KT 01/M00 A3033 RMK A01 T00081003  RH  093%=      5-min Rain = 0
KFL1 120356Z 08002KT 01/M00 A3033 RMK A01 T00071004  RH  092%=      5-min Rain = 0
KFL1 120357Z 08002KT 01/M01 A3033 RMK A01 T00061006  RH  092%=      5-min Rain = 0
KFL1 120358Z 08002KT 01/M01 A3033 RMK A01 T00061006  RH  091%=      5-min Rain = 0
KFL1 120359Z 09002KT 00/M01 A3033 RMK A01 T00041008  RH  091%=      5-min Rain = 0
KFL1 120400Z 10002KT 00/M01 A3033 RMK A01 T00031009  RH  092%=      5-min Rain = 0
KFL1 120401Z 10002KT 00/M01 A3033 RMK A01 T00041007  RH  093%=      5-min Rain = 0
KFL1 120402Z 09002KT 00/M01 A3033 RMK A01 T00021008  RH  093%=      5-min Rain = 0
KFL1 120403Z 09002KT 00/M01 A3033 RMK A01 T00041005  RH  094%=      5-min Rain = 0
KFL1 120404Z 08002KT 00/M01 A3033 RMK A01 T00011008  RH  094%=      5-min Rain = 0
KFL1 120405Z 07002KT 00/M01 A3033 RMK A01 T00011007  RH  094%=      5-min Rain = 0
KFL1 120406Z 07002KT 00/M01 A3033 RMK A01 T00011007  RH  095%=      5-min Rain = 0
KFL1 120407Z 06003KT 00/M01 A3034 RMK A01 T00011007  RH  095%=      5-min Rain = 0
KFL1 120408Z 06003KT 00/M01 A3034 RMK A01 T00011007  RH  095%=      5-min Rain = 0
KFL1 120409Z 06003KT 00/M01 A3034 RMK A01 T00011006  RH  095%=      5-min Rain = 0
KFL1 120410Z 05004KT 00/M01 A3034 RMK A01 T00011006  RH  095%=      5-min Rain = 0
KFL1 120411Z 05004KT 00/M01 A3034 RMK A01 T00011006  RH  095%=      5-min Rain = 0
KFL1 120412Z 05004KT 00/M00 A3034 RMK A01 T00021004  RH  096%=      5-min Rain = 0
KFL1 120413Z 05004KT 00/M00 A3034 RMK A01 T00021004  RH  096%=      5-min Rain = 0
KFL1 120414Z 06004KT 00/M00 A3034 RMK A01 T00031004  RH  096%=      5-min Rain = 0
KFL1 120415Z 06004KT 00/M00 A3034 RMK A01 T00021004  RH  096%=      5-min Rain = 0
KFL1 120416Z 05004KT 00/M00 A3034 RMK A01 T00031004  RH  096%=      5-min Rain = 0
KFL1 120417Z 05004KT 00/M00 A3034 RMK A01 T00031004  RH  095%=      5-min Rain = 0
KFL1 120418Z 05004KT 00/M00 A3034 RMK A01 T00031004  RH  095%=      5-min Rain = 0
KFL1 120419Z 05004KT 00/M00 A3034 RMK A01 T00031004  RH  095%=      5-min Rain = 0
KFL1 120420Z 05004KT 00/M01 A3034 RMK A01 T00021005  RH  095%=      5-min Rain = 0
KFL1 120421Z 05005KT 00/M00 A3034 RMK A01 T00031004  RH  095%=      5-min Rain = 0
KFL1 120422Z 05004KT 00/M00 A3034 RMK A01 T00031004  RH  095%=      5-min Rain = 0
KFL1 120423Z 05004KT 00/M00 A3034 RMK A01 T00031004  RH  095%=      5-min Rain = 0
KFL1 120424Z 05004KT 00/M01 A3034 RMK A01 T00021005  RH  095%=      5-min Rain = 0
KFL1 120425Z 05004KT 00/M01 A3034 RMK A01 T00021005  RH  095%=      5-min Rain = 0
KFL1 120426Z 05003KT 00/M01 A3034 RMK A01 T00021005  RH  095%=      5-min Rain = 0
KFL1 120427Z 05003KT 00/M01 A3034 RMK A01 T00021005  RH  096%=      5-min Rain = 0
KFL1 120428Z 06004KT 00/M01 A3034 RMK A01 T00011005  RH  096%=      5-min Rain = 0
KFL1 120429Z 06004KT 00/M01 A3034 RMK A01 T00021005  RH  096%=      5-min Rain = 0
KFL1 120430Z 06004KT 00/M01 A3034 RMK A01 T00011005  RH  096%=      5-min Rain = 0
KFL1 120431Z 06004KT 00/M01 A3034 RMK A01 T00011005  RH  096%=      5-min Rain = 0
KFL1 120432Z 06004KT 00/M01 A3034 RMK A01 T00011005  RH  096%=      5-min Rain = 0
KFL1 120433Z 06004KT 00/M01 A3034 RMK A01 T00021005  RH  096%=      5-min Rain = 0
KFL1 120434Z 06004KT 00/M01 A3034 RMK A01 T00011006  RH  096%=      5-min Rain = 0
KFL1 120435Z 06004KT M00/M01 A3034 RMK A01 T10011007  RH  096%=      5-min Rain = 0
KFL1 120436Z 07003KT M00/M01 A3034 RMK A01 T10011008  RH  096%=      5-min Rain = 0
KFL1 120437Z 06003KT M00/M01 A3034 RMK A01 T10011007  RH  096%=      5-min Rain = 0
KFL1 120438Z 06003KT M00/M01 A3034 RMK A01 T10031009  RH  096%=      5-min Rain = 0
KFL1 120439Z 07003KT M00/M01 A3034 RMK A01 T10031010  RH  096%=      5-min Rain = 0
KFL1 120440Z 07003KT M00/M01 A3034 RMK A01 T10041010  RH  096%=      5-min Rain = 0
KFL1 120441Z 07003KT M01/M01 A3034 RMK A01 T10051010  RH  096%=      5-min Rain = 0
KFL1 120442Z 07003KT M00/M01 A3034 RMK A01 T10041009  RH  096%=      5-min Rain = 0
KFL1 120443Z 07003KT M01/M01 A3034 RMK A01 T10051010  RH  096%=      5-min Rain = 0
KFL1 120444Z 08003KT M01/M01 A3034 RMK A01 T10051010  RH  096%=      5-min Rain = 0
KFL1 120445Z 08003KT M00/M01 A3034 RMK A01 T10041009  RH  097%=      5-min Rain = 0
KFL1 120446Z 08003KT M01/M01 A3034 RMK A01 T10051009  RH  097%=      5-min Rain = 0
KFL1 120447Z 07003KT M01/M01 A3034 RMK A01 T10051009  RH  097%=      5-min Rain = 0
KFL1 120448Z 08003KT M01/M01 A3034 RMK A01 T10061010  RH  097%=      5-min Rain = 0
KFL1 120449Z 08003KT M01/M01 A3034 RMK A01 T10051010  RH  097%=      5-min Rain = 0
KFL1 120450Z 08003KT M01/M01 A3034 RMK A01 T10051010  RH  097%=      5-min Rain = 0
KFL1 120451Z 07003KT M01/M01 A3034 RMK A01 T10051009  RH  097%=      5-min Rain = 0
KFL1 120452Z 07003KT M01/M01 A3034 RMK A01 T10061010  RH  097%=      5-min Rain = 0
KFL1 120453Z 08003KT M01/M01 A3034 RMK A01 T10061010  RH  097%=      5-min Rain = 0
KFL1 120454Z 07003KT M01/M01 A3034 RMK A01 T10061010  RH  097%=      5-min Rain = 0
KFL1 120455Z 07003KT M01/M01 A3034 RMK A01 T10061010  RH  097%=      5-min Rain = 0
KFL1 120456Z 07004KT M01/M01 A3034 RMK A01 T10071011  RH  097%=      5-min Rain = 0
KFL1 120457Z 07004KT M01/M01 A3034 RMK A01 T10071011  RH  097%=      5-min Rain = 0
KFL1 120458Z 07004KT M01/M01 A3034 RMK A01 T10061010  RH  097%=      5-min Rain = 0
KFL1 120459Z 07004KT M01/M01 A3034 RMK A01 T10071011  RH  097%=      5-min Rain = 0

Page generated in 0.0448 seconds.